<?xml version="1.0" encoding="UTF-8" standalone="no" ?>
<gpx xmlns="http://www.topografix.com/GPX/1/1" xmlns:xsi="http://www.w3.org/2001/XMLSchema-instance" xsi:schemaLocation="http://www.topografix.com/GPX/1/1 http://www.topografix.com/GPX/1/1/gpx.xsd" version="1.1" creator="VisuGPX - https://www.visugpx.com">
  <metadata>
    <name>Le Bessat - Col de La Chèvre</name>
  </metadata>
  <trk>
    <name><![CDATA[Le Bessat - Col de La Chèvre_1]]></name>
    <extensions>
      <line xmlns="http://www.topografix.com/GPX/gpx_style/0/2">
        <color>0000FF</color>
        <width>4</width>
      </line>
    </extensions>
    <trkseg>
      <trkpt lat="45.3683" lon="4.5281">
        <ele>1201</ele>
        <time>2023-05-18T10:24:02Z</time>
      </trkpt>
      <trkpt lat="45.3683" lon="4.52811">
        <ele>1201</ele>
        <time>2023-05-18T10:24:03Z</time>
      </trkpt>
      <trkpt lat="45.3683" lon="4.52816">
        <ele>1201</ele>
        <time>2023-05-18T10:24:26Z</time>
      </trkpt>
      <trkpt lat="45.36831" lon="4.52821">
        <ele>1201</ele>
        <time>2023-05-18T10:24:30Z</time>
      </trkpt>
      <trkpt lat="45.36831" lon="4.52823">
        <ele>1201</ele>
        <time>2023-05-18T10:24:31Z</time>
      </trkpt>
      <trkpt lat="45.36831" lon="4.52825">
        <ele>1200.8</ele>
        <time>2023-05-18T10:24:32Z</time>
      </trkpt>
      <trkpt lat="45.36832" lon="4.52826">
        <ele>1200.8</ele>
        <time>2023-05-18T10:24:33Z</time>
      </trkpt>
      <trkpt lat="45.36833" lon="4.52828">
        <ele>1200.8</ele>
        <time>2023-05-18T10:24:34Z</time>
      </trkpt>
      <trkpt lat="45.36834" lon="4.52829">
        <ele>1200.8</ele>
        <time>2023-05-18T10:24:35Z</time>
      </trkpt>
      <trkpt lat="45.36835" lon="4.5283">
        <ele>1200.8</ele>
        <time>2023-05-18T10:24:36Z</time>
      </trkpt>
      <trkpt lat="45.36837" lon="4.52831">
        <ele>1200.8</ele>
        <time>2023-05-18T10:24:37Z</time>
      </trkpt>
      <trkpt lat="45.36838" lon="4.52831">
        <ele>1200.8</ele>
        <time>2023-05-18T10:24:38Z</time>
      </trkpt>
      <trkpt lat="45.36841" lon="4.52833">
        <ele>1200.6</ele>
        <time>2023-05-18T10:24:41Z</time>
      </trkpt>
      <trkpt lat="45.36849" lon="4.5284">
        <ele>1199.8</ele>
        <time>2023-05-18T10:24:53Z</time>
      </trkpt>
      <trkpt lat="45.3685" lon="4.52841">
        <ele>1199.8</ele>
        <time>2023-05-18T10:24:54Z</time>
      </trkpt>
      <trkpt lat="45.36856" lon="4.5285">
        <ele>1199.6</ele>
        <time>2023-05-18T10:24:59Z</time>
      </trkpt>
      <trkpt lat="45.36856" lon="4.52852">
        <ele>1199.6</ele>
        <time>2023-05-18T10:25:00Z</time>
      </trkpt>
      <trkpt lat="45.36856" lon="4.52859">
        <ele>1200.8</ele>
        <time>2023-05-18T10:25:15Z</time>
      </trkpt>
      <trkpt lat="45.36856" lon="4.52859">
        <ele>1200.4</ele>
        <time>2023-05-18T10:25:26Z</time>
      </trkpt>
      <trkpt lat="45.36856" lon="4.52861">
        <ele>1200.4</ele>
        <time>2023-05-18T10:25:27Z</time>
      </trkpt>
      <trkpt lat="45.36859" lon="4.5287">
        <ele>1200.4</ele>
        <time>2023-05-18T10:25:35Z</time>
      </trkpt>
      <trkpt lat="45.36859" lon="4.52871">
        <ele>1200.4</ele>
        <time>2023-05-18T10:25:36Z</time>
      </trkpt>
      <trkpt lat="45.3686" lon="4.52883">
        <ele>1201</ele>
        <time>2023-05-18T10:25:44Z</time>
      </trkpt>
      <trkpt lat="45.36861" lon="4.52885">
        <ele>1201.2</ele>
        <time>2023-05-18T10:25:45Z</time>
      </trkpt>
      <trkpt lat="45.36864" lon="4.52898">
        <ele>1202</ele>
        <time>2023-05-18T10:25:54Z</time>
      </trkpt>
      <trkpt lat="45.36864" lon="4.529">
        <ele>1202.2</ele>
        <time>2023-05-18T10:25:55Z</time>
      </trkpt>
      <trkpt lat="45.36864" lon="4.52902">
        <ele>1202.4</ele>
        <time>2023-05-18T10:25:56Z</time>
      </trkpt>
      <trkpt lat="45.36869" lon="4.52921">
        <ele>1203.8</ele>
        <time>2023-05-18T10:26:08Z</time>
      </trkpt>
      <trkpt lat="45.3687" lon="4.52923">
        <ele>1204.2</ele>
        <time>2023-05-18T10:26:10Z</time>
      </trkpt>
      <trkpt lat="45.3687" lon="4.52925">
        <ele>1204.2</ele>
        <time>2023-05-18T10:26:11Z</time>
      </trkpt>
      <trkpt lat="45.36871" lon="4.52926">
        <ele>1204.6</ele>
        <time>2023-05-18T10:26:12Z</time>
      </trkpt>
      <trkpt lat="45.36871" lon="4.52928">
        <ele>1204.6</ele>
        <time>2023-05-18T10:26:13Z</time>
      </trkpt>
      <trkpt lat="45.36871" lon="4.52929">
        <ele>1204.8</ele>
        <time>2023-05-18T10:26:14Z</time>
      </trkpt>
      <trkpt lat="45.36871" lon="4.5293">
        <ele>1205</ele>
        <time>2023-05-18T10:26:15Z</time>
      </trkpt>
      <trkpt lat="45.36873" lon="4.52938">
        <ele>1205.6</ele>
        <time>2023-05-18T10:26:20Z</time>
      </trkpt>
      <trkpt lat="45.36873" lon="4.52939">
        <ele>1205.8</ele>
        <time>2023-05-18T10:26:21Z</time>
      </trkpt>
      <trkpt lat="45.36874" lon="4.52942">
        <ele>1206</ele>
        <time>2023-05-18T10:26:23Z</time>
      </trkpt>
      <trkpt lat="45.36875" lon="4.52944">
        <ele>1206.2</ele>
        <time>2023-05-18T10:26:24Z</time>
      </trkpt>
      <trkpt lat="45.36875" lon="4.52949">
        <ele>1206.6</ele>
        <time>2023-05-18T10:26:28Z</time>
      </trkpt>
      <trkpt lat="45.36878" lon="4.52955">
        <ele>1207</ele>
        <time>2023-05-18T10:26:31Z</time>
      </trkpt>
      <trkpt lat="45.36878" lon="4.52956">
        <ele>1207</ele>
        <time>2023-05-18T10:26:32Z</time>
      </trkpt>
      <trkpt lat="45.36879" lon="4.52957">
        <ele>1207.2</ele>
        <time>2023-05-18T10:26:33Z</time>
      </trkpt>
      <trkpt lat="45.36879" lon="4.52959">
        <ele>1207.4</ele>
        <time>2023-05-18T10:26:34Z</time>
      </trkpt>
      <trkpt lat="45.36879" lon="4.52961">
        <ele>1207.4</ele>
        <time>2023-05-18T10:26:35Z</time>
      </trkpt>
      <trkpt lat="45.3688" lon="4.52962">
        <ele>1207.6</ele>
        <time>2023-05-18T10:26:36Z</time>
      </trkpt>
      <trkpt lat="45.36882" lon="4.52971">
        <ele>1208.6</ele>
        <time>2023-05-18T10:26:42Z</time>
      </trkpt>
      <trkpt lat="45.36882" lon="4.52973">
        <ele>1208.8</ele>
        <time>2023-05-18T10:26:43Z</time>
      </trkpt>
      <trkpt lat="45.36886" lon="4.52986">
        <ele>1211.2</ele>
        <time>2023-05-18T10:26:59Z</time>
      </trkpt>
      <trkpt lat="45.36888" lon="4.52994">
        <ele>1212.4</ele>
        <time>2023-05-18T10:27:10Z</time>
      </trkpt>
      <trkpt lat="45.36889" lon="4.52996">
        <ele>1212.4</ele>
        <time>2023-05-18T10:27:11Z</time>
      </trkpt>
      <trkpt lat="45.36889" lon="4.52998">
        <ele>1212.4</ele>
        <time>2023-05-18T10:27:12Z</time>
      </trkpt>
      <trkpt lat="45.36899" lon="4.53014">
        <ele>1214.2</ele>
        <time>2023-05-18T10:27:28Z</time>
      </trkpt>
      <trkpt lat="45.36907" lon="4.53035">
        <ele>1216</ele>
        <time>2023-05-18T10:27:47Z</time>
      </trkpt>
      <trkpt lat="45.36911" lon="4.5306">
        <ele>1219.2</ele>
        <time>2023-05-18T10:28:07Z</time>
      </trkpt>
      <trkpt lat="45.36909" lon="4.53079">
        <ele>1220.8</ele>
        <time>2023-05-18T10:28:22Z</time>
      </trkpt>
      <trkpt lat="45.36912" lon="4.53097">
        <ele>1222.4</ele>
        <time>2023-05-18T10:28:37Z</time>
      </trkpt>
      <trkpt lat="45.36915" lon="4.53112">
        <ele>1224</ele>
        <time>2023-05-18T10:28:47Z</time>
      </trkpt>
      <trkpt lat="45.36917" lon="4.53142">
        <ele>1227</ele>
        <time>2023-05-18T10:29:08Z</time>
      </trkpt>
      <trkpt lat="45.36923" lon="4.53157">
        <ele>1228.6</ele>
        <time>2023-05-18T10:29:22Z</time>
      </trkpt>
      <trkpt lat="45.36925" lon="4.53169">
        <ele>1230</ele>
        <time>2023-05-18T10:29:39Z</time>
      </trkpt>
      <trkpt lat="45.36926" lon="4.53179">
        <ele>1230.6</ele>
        <time>2023-05-18T10:29:49Z</time>
      </trkpt>
      <trkpt lat="45.36928" lon="4.53185">
        <ele>1231.2</ele>
        <time>2023-05-18T10:29:53Z</time>
      </trkpt>
      <trkpt lat="45.3693" lon="4.53209">
        <ele>1233.2</ele>
        <time>2023-05-18T10:30:08Z</time>
      </trkpt>
      <trkpt lat="45.36934" lon="4.53234">
        <ele>1234.2</ele>
        <time>2023-05-18T10:30:23Z</time>
      </trkpt>
      <trkpt lat="45.36936" lon="4.53251">
        <ele>1235</ele>
        <time>2023-05-18T10:30:35Z</time>
      </trkpt>
      <trkpt lat="45.36937" lon="4.53263">
        <ele>1236</ele>
        <time>2023-05-18T10:30:45Z</time>
      </trkpt>
      <trkpt lat="45.36945" lon="4.53288">
        <ele>1238.4</ele>
        <time>2023-05-18T10:31:06Z</time>
      </trkpt>
      <trkpt lat="45.36948" lon="4.53293">
        <ele>1239.2</ele>
        <time>2023-05-18T10:31:11Z</time>
      </trkpt>
      <trkpt lat="45.36952" lon="4.53313">
        <ele>1242.6</ele>
        <time>2023-05-18T10:31:32Z</time>
      </trkpt>
      <trkpt lat="45.3696" lon="4.5333">
        <ele>1244</ele>
        <time>2023-05-18T10:31:45Z</time>
      </trkpt>
      <trkpt lat="45.36964" lon="4.53366">
        <ele>1246</ele>
        <time>2023-05-18T10:32:01Z</time>
      </trkpt>
      <trkpt lat="45.36975" lon="4.53377">
        <ele>1247.2</ele>
        <time>2023-05-18T10:32:13Z</time>
      </trkpt>
      <trkpt lat="45.36976" lon="4.53381">
        <ele>1247.4</ele>
        <time>2023-05-18T10:32:16Z</time>
      </trkpt>
      <trkpt lat="45.36984" lon="4.53396">
        <ele>1248.4</ele>
        <time>2023-05-18T10:32:27Z</time>
      </trkpt>
      <trkpt lat="45.36994" lon="4.53408">
        <ele>1248.6</ele>
        <time>2023-05-18T10:32:37Z</time>
      </trkpt>
      <trkpt lat="45.36994" lon="4.53409">
        <ele>1248.6</ele>
        <time>2023-05-18T10:32:38Z</time>
      </trkpt>
      <trkpt lat="45.36997" lon="4.53429">
        <ele>1247.8</ele>
        <time>2023-05-18T10:32:49Z</time>
      </trkpt>
      <trkpt lat="45.36998" lon="4.53432">
        <ele>1247.8</ele>
        <time>2023-05-18T10:32:51Z</time>
      </trkpt>
      <trkpt lat="45.37" lon="4.53445">
        <ele>1246.6</ele>
        <time>2023-05-18T10:33:02Z</time>
      </trkpt>
      <trkpt lat="45.37007" lon="4.53461">
        <ele>1245</ele>
        <time>2023-05-18T10:33:14Z</time>
      </trkpt>
      <trkpt lat="45.37009" lon="4.53464">
        <ele>1244.8</ele>
        <time>2023-05-18T10:33:16Z</time>
      </trkpt>
      <trkpt lat="45.37016" lon="4.53494">
        <ele>1241.6</ele>
        <time>2023-05-18T10:33:37Z</time>
      </trkpt>
      <trkpt lat="45.37023" lon="4.53535">
        <ele>1239.2</ele>
        <time>2023-05-18T10:33:59Z</time>
      </trkpt>
      <trkpt lat="45.37025" lon="4.53544">
        <ele>1238.6</ele>
        <time>2023-05-18T10:34:06Z</time>
      </trkpt>
      <trkpt lat="45.37025" lon="4.53547">
        <ele>1238.4</ele>
        <time>2023-05-18T10:34:08Z</time>
      </trkpt>
      <trkpt lat="45.37025" lon="4.53564">
        <ele>1237.8</ele>
        <time>2023-05-18T10:34:20Z</time>
      </trkpt>
      <trkpt lat="45.37025" lon="4.53583">
        <ele>1237.4</ele>
        <time>2023-05-18T10:34:30Z</time>
      </trkpt>
      <trkpt lat="45.37017" lon="4.53623">
        <ele>1236.8</ele>
        <time>2023-05-18T10:35:00Z</time>
      </trkpt>
      <trkpt lat="45.37016" lon="4.53637">
        <ele>1236.8</ele>
        <time>2023-05-18T10:35:07Z</time>
      </trkpt>
      <trkpt lat="45.37013" lon="4.53683">
        <ele>1236.6</ele>
        <time>2023-05-18T10:35:22Z</time>
      </trkpt>
      <trkpt lat="45.37013" lon="4.53684">
        <ele>1236.6</ele>
        <time>2023-05-18T10:35:23Z</time>
      </trkpt>
      <trkpt lat="45.37011" lon="4.53692">
        <ele>1236.4</ele>
        <time>2023-05-18T10:35:28Z</time>
      </trkpt>
      <trkpt lat="45.37011" lon="4.53694">
        <ele>1236.4</ele>
        <time>2023-05-18T10:35:29Z</time>
      </trkpt>
      <trkpt lat="45.37011" lon="4.53698">
        <ele>1236.4</ele>
        <time>2023-05-18T10:35:31Z</time>
      </trkpt>
      <trkpt lat="45.37011" lon="4.53699">
        <ele>1236.4</ele>
        <time>2023-05-18T10:35:32Z</time>
      </trkpt>
      <trkpt lat="45.3701" lon="4.537">
        <ele>1236.4</ele>
        <time>2023-05-18T10:35:33Z</time>
      </trkpt>
      <trkpt lat="45.3701" lon="4.53701">
        <ele>1236.4</ele>
        <time>2023-05-18T10:35:34Z</time>
      </trkpt>
      <trkpt lat="45.3701" lon="4.53703">
        <ele>1236.4</ele>
        <time>2023-05-18T10:35:35Z</time>
      </trkpt>
      <trkpt lat="45.37008" lon="4.53706">
        <ele>1236.4</ele>
        <time>2023-05-18T10:35:37Z</time>
      </trkpt>
      <trkpt lat="45.37007" lon="4.53708">
        <ele>1236.4</ele>
        <time>2023-05-18T10:35:38Z</time>
      </trkpt>
      <trkpt lat="45.37005" lon="4.5371">
        <ele>1236.4</ele>
        <time>2023-05-18T10:35:39Z</time>
      </trkpt>
      <trkpt lat="45.37005" lon="4.53712">
        <ele>1236.4</ele>
        <time>2023-05-18T10:35:40Z</time>
      </trkpt>
      <trkpt lat="45.37004" lon="4.53715">
        <ele>1236.4</ele>
        <time>2023-05-18T10:35:41Z</time>
      </trkpt>
      <trkpt lat="45.37003" lon="4.53717">
        <ele>1236.4</ele>
        <time>2023-05-18T10:35:42Z</time>
      </trkpt>
      <trkpt lat="45.37002" lon="4.5372">
        <ele>1236.4</ele>
        <time>2023-05-18T10:35:43Z</time>
      </trkpt>
      <trkpt lat="45.36998" lon="4.53727">
        <ele>1236.4</ele>
        <time>2023-05-18T10:35:45Z</time>
      </trkpt>
      <trkpt lat="45.36996" lon="4.5373">
        <ele>1236.4</ele>
        <time>2023-05-18T10:35:47Z</time>
      </trkpt>
      <trkpt lat="45.36993" lon="4.53753">
        <ele>1236.2</ele>
        <time>2023-05-18T10:36:07Z</time>
      </trkpt>
      <trkpt lat="45.36993" lon="4.53763">
        <ele>1236</ele>
        <time>2023-05-18T10:36:42Z</time>
      </trkpt>
      <trkpt lat="45.36996" lon="4.53775">
        <ele>1236</ele>
        <time>2023-05-18T10:37:09Z</time>
      </trkpt>
      <trkpt lat="45.36997" lon="4.53787">
        <ele>1235.4</ele>
        <time>2023-05-18T10:37:31Z</time>
      </trkpt>
      <trkpt lat="45.36999" lon="4.53836">
        <ele>1235.2</ele>
        <time>2023-05-18T10:38:03Z</time>
      </trkpt>
      <trkpt lat="45.37001" lon="4.53849">
        <ele>1235.4</ele>
        <time>2023-05-18T10:38:12Z</time>
      </trkpt>
      <trkpt lat="45.37003" lon="4.5386">
        <ele>1235.6</ele>
        <time>2023-05-18T10:38:27Z</time>
      </trkpt>
      <trkpt lat="45.37006" lon="4.53881">
        <ele>1235.4</ele>
        <time>2023-05-18T10:38:40Z</time>
      </trkpt>
      <trkpt lat="45.37008" lon="4.53909">
        <ele>1234.4</ele>
        <time>2023-05-18T10:38:57Z</time>
      </trkpt>
      <trkpt lat="45.37007" lon="4.53925">
        <ele>1232.8</ele>
        <time>2023-05-18T10:39:10Z</time>
      </trkpt>
      <trkpt lat="45.37009" lon="4.53948">
        <ele>1231.4</ele>
        <time>2023-05-18T10:39:31Z</time>
      </trkpt>
      <trkpt lat="45.37009" lon="4.5397">
        <ele>1229</ele>
        <time>2023-05-18T10:39:46Z</time>
      </trkpt>
      <trkpt lat="45.37009" lon="4.54007">
        <ele>1226</ele>
        <time>2023-05-18T10:40:09Z</time>
      </trkpt>
      <trkpt lat="45.37005" lon="4.54029">
        <ele>1224.6</ele>
        <time>2023-05-18T10:40:25Z</time>
      </trkpt>
      <trkpt lat="45.36995" lon="4.54056">
        <ele>1224.4</ele>
        <time>2023-05-18T10:40:47Z</time>
      </trkpt>
      <trkpt lat="45.36995" lon="4.54082">
        <ele>1224.4</ele>
        <time>2023-05-18T10:41:05Z</time>
      </trkpt>
      <trkpt lat="45.36995" lon="4.54084">
        <ele>1224.4</ele>
        <time>2023-05-18T10:41:06Z</time>
      </trkpt>
      <trkpt lat="45.37001" lon="4.54128">
        <ele>1224</ele>
        <time>2023-05-18T10:41:33Z</time>
      </trkpt>
      <trkpt lat="45.37008" lon="4.54174">
        <ele>1223.2</ele>
        <time>2023-05-18T10:42:02Z</time>
      </trkpt>
      <trkpt lat="45.3701" lon="4.54208">
        <ele>1220.6</ele>
        <time>2023-05-18T10:42:28Z</time>
      </trkpt>
      <trkpt lat="45.37011" lon="4.54227">
        <ele>1219</ele>
        <time>2023-05-18T10:42:41Z</time>
      </trkpt>
      <trkpt lat="45.37006" lon="4.54262">
        <ele>1218.2</ele>
        <time>2023-05-18T10:42:59Z</time>
      </trkpt>
      <trkpt lat="45.37004" lon="4.54265">
        <ele>1218</ele>
        <time>2023-05-18T10:43:01Z</time>
      </trkpt>
      <trkpt lat="45.37004" lon="4.54267">
        <ele>1218</ele>
        <time>2023-05-18T10:43:02Z</time>
      </trkpt>
      <trkpt lat="45.37003" lon="4.54268">
        <ele>1217.8</ele>
        <time>2023-05-18T10:43:03Z</time>
      </trkpt>
      <trkpt lat="45.37002" lon="4.54269">
        <ele>1217.8</ele>
        <time>2023-05-18T10:43:04Z</time>
      </trkpt>
      <trkpt lat="45.37001" lon="4.54271">
        <ele>1217.4</ele>
        <time>2023-05-18T10:43:05Z</time>
      </trkpt>
      <trkpt lat="45.37" lon="4.54272">
        <ele>1217.2</ele>
        <time>2023-05-18T10:43:06Z</time>
      </trkpt>
      <trkpt lat="45.36999" lon="4.54274">
        <ele>1217</ele>
        <time>2023-05-18T10:43:07Z</time>
      </trkpt>
      <trkpt lat="45.36988" lon="4.54293">
        <ele>1216</ele>
        <time>2023-05-18T10:43:20Z</time>
      </trkpt>
      <trkpt lat="45.3698" lon="4.54311">
        <ele>1216</ele>
        <time>2023-05-18T10:43:31Z</time>
      </trkpt>
      <trkpt lat="45.36971" lon="4.54329">
        <ele>1216</ele>
        <time>2023-05-18T10:43:47Z</time>
      </trkpt>
      <trkpt lat="45.36967" lon="4.54346">
        <ele>1216</ele>
        <time>2023-05-18T10:43:55Z</time>
      </trkpt>
      <trkpt lat="45.3696" lon="4.54362">
        <ele>1216.4</ele>
        <time>2023-05-18T10:44:07Z</time>
      </trkpt>
      <trkpt lat="45.36908" lon="4.54423">
        <ele>1219.4</ele>
        <time>2023-05-18T10:45:01Z</time>
      </trkpt>
      <trkpt lat="45.36883" lon="4.54458">
        <ele>1221.8</ele>
        <time>2023-05-18T10:45:28Z</time>
      </trkpt>
      <trkpt lat="45.36864" lon="4.54461">
        <ele>1222.2</ele>
        <time>2023-05-18T10:45:44Z</time>
      </trkpt>
      <trkpt lat="45.36786" lon="4.54512">
        <ele>1224.2</ele>
        <time>2023-05-18T10:47:00Z</time>
      </trkpt>
      <trkpt lat="45.36724" lon="4.54537">
        <ele>1227.2</ele>
        <time>2023-05-18T10:48:09Z</time>
      </trkpt>
      <trkpt lat="45.367" lon="4.5455">
        <ele>1230.2</ele>
        <time>2023-05-18T10:48:37Z</time>
      </trkpt>
      <trkpt lat="45.36674" lon="4.54566">
        <ele>1233.2</ele>
        <time>2023-05-18T10:49:06Z</time>
      </trkpt>
      <trkpt lat="45.36646" lon="4.54591">
        <ele>1236.2</ele>
        <time>2023-05-18T10:49:38Z</time>
      </trkpt>
      <trkpt lat="45.36616" lon="4.5463">
        <ele>1236.8</ele>
        <time>2023-05-18T10:50:21Z</time>
      </trkpt>
      <trkpt lat="45.36599" lon="4.54651">
        <ele>1236.6</ele>
        <time>2023-05-18T10:50:30Z</time>
      </trkpt>
      <trkpt lat="45.36595" lon="4.54656">
        <ele>1236.4</ele>
        <time>2023-05-18T10:50:34Z</time>
      </trkpt>
      <trkpt lat="45.36591" lon="4.54664">
        <ele>1236.4</ele>
        <time>2023-05-18T10:50:40Z</time>
      </trkpt>
      <trkpt lat="45.36579" lon="4.54678">
        <ele>1235.8</ele>
        <time>2023-05-18T10:50:58Z</time>
      </trkpt>
      <trkpt lat="45.36571" lon="4.54694">
        <ele>1235.6</ele>
        <time>2023-05-18T10:51:19Z</time>
      </trkpt>
      <trkpt lat="45.36566" lon="4.54695">
        <ele>1235.6</ele>
        <time>2023-05-18T10:51:32Z</time>
      </trkpt>
      <trkpt lat="45.36552" lon="4.54709">
        <ele>1235.6</ele>
        <time>2023-05-18T10:51:48Z</time>
      </trkpt>
      <trkpt lat="45.36533" lon="4.54751">
        <ele>1233.4</ele>
        <time>2023-05-18T10:52:19Z</time>
      </trkpt>
      <trkpt lat="45.36519" lon="4.54771">
        <ele>1231.8</ele>
        <time>2023-05-18T10:52:36Z</time>
      </trkpt>
      <trkpt lat="45.36508" lon="4.5479">
        <ele>1230.6</ele>
        <time>2023-05-18T10:52:48Z</time>
      </trkpt>
      <trkpt lat="45.36495" lon="4.54809">
        <ele>1229.8</ele>
        <time>2023-05-18T10:52:59Z</time>
      </trkpt>
      <trkpt lat="45.36474" lon="4.54837">
        <ele>1229</ele>
        <time>2023-05-18T10:53:16Z</time>
      </trkpt>
      <trkpt lat="45.36465" lon="4.54862">
        <ele>1228.4</ele>
        <time>2023-05-18T10:53:29Z</time>
      </trkpt>
      <trkpt lat="45.36456" lon="4.54879">
        <ele>1228</ele>
        <time>2023-05-18T10:53:41Z</time>
      </trkpt>
      <trkpt lat="45.36446" lon="4.54893">
        <ele>1227.6</ele>
        <time>2023-05-18T10:53:49Z</time>
      </trkpt>
      <trkpt lat="45.36436" lon="4.54917">
        <ele>1227.2</ele>
        <time>2023-05-18T10:54:02Z</time>
      </trkpt>
      <trkpt lat="45.36431" lon="4.54953">
        <ele>1226.4</ele>
        <time>2023-05-18T10:54:20Z</time>
      </trkpt>
      <trkpt lat="45.36415" lon="4.5498">
        <ele>1224.6</ele>
        <time>2023-05-18T10:54:38Z</time>
      </trkpt>
      <trkpt lat="45.36414" lon="4.55005">
        <ele>1223.4</ele>
        <time>2023-05-18T10:54:51Z</time>
      </trkpt>
      <trkpt lat="45.36405" lon="4.55024">
        <ele>1222</ele>
        <time>2023-05-18T10:55:05Z</time>
      </trkpt>
      <trkpt lat="45.36405" lon="4.55026">
        <ele>1222</ele>
        <time>2023-05-18T10:55:06Z</time>
      </trkpt>
      <trkpt lat="45.36404" lon="4.55028">
        <ele>1221.8</ele>
        <time>2023-05-18T10:55:07Z</time>
      </trkpt>
      <trkpt lat="45.36404" lon="4.5503">
        <ele>1221.8</ele>
        <time>2023-05-18T10:55:08Z</time>
      </trkpt>
      <trkpt lat="45.36406" lon="4.55033">
        <ele>1221.6</ele>
        <time>2023-05-18T10:55:09Z</time>
      </trkpt>
      <trkpt lat="45.36406" lon="4.55035">
        <ele>1221.6</ele>
        <time>2023-05-18T10:55:10Z</time>
      </trkpt>
      <trkpt lat="45.36405" lon="4.55037">
        <ele>1221.4</ele>
        <time>2023-05-18T10:55:11Z</time>
      </trkpt>
      <trkpt lat="45.36405" lon="4.5504">
        <ele>1221.4</ele>
        <time>2023-05-18T10:55:12Z</time>
      </trkpt>
      <trkpt lat="45.36398" lon="4.55055">
        <ele>1220.8</ele>
        <time>2023-05-18T10:55:21Z</time>
      </trkpt>
      <trkpt lat="45.36399" lon="4.55083">
        <ele>1220</ele>
        <time>2023-05-18T10:55:35Z</time>
      </trkpt>
      <trkpt lat="45.36395" lon="4.55113">
        <ele>1218.8</ele>
        <time>2023-05-18T10:55:51Z</time>
      </trkpt>
      <trkpt lat="45.36389" lon="4.55142">
        <ele>1217.4</ele>
        <time>2023-05-18T10:56:08Z</time>
      </trkpt>
      <trkpt lat="45.36385" lon="4.55167">
        <ele>1216.2</ele>
        <time>2023-05-18T10:56:24Z</time>
      </trkpt>
      <trkpt lat="45.36388" lon="4.55194">
        <ele>1214</ele>
        <time>2023-05-18T10:56:41Z</time>
      </trkpt>
      <trkpt lat="45.36387" lon="4.55197">
        <ele>1213.8</ele>
        <time>2023-05-18T10:56:43Z</time>
      </trkpt>
      <trkpt lat="45.36387" lon="4.55199">
        <ele>1213.4</ele>
        <time>2023-05-18T10:56:44Z</time>
      </trkpt>
      <trkpt lat="45.36384" lon="4.55213">
        <ele>1212.6</ele>
        <time>2023-05-18T10:56:51Z</time>
      </trkpt>
      <trkpt lat="45.36377" lon="4.55227">
        <ele>1212.4</ele>
        <time>2023-05-18T10:56:59Z</time>
      </trkpt>
      <trkpt lat="45.36377" lon="4.55247">
        <ele>1212.4</ele>
        <time>2023-05-18T10:57:13Z</time>
      </trkpt>
      <trkpt lat="45.3638" lon="4.55255">
        <ele>1213.8</ele>
        <time>2023-05-18T10:57:20Z</time>
      </trkpt>
      <trkpt lat="45.3638" lon="4.55257">
        <ele>1213.8</ele>
        <time>2023-05-18T10:57:21Z</time>
      </trkpt>
      <trkpt lat="45.36383" lon="4.55268">
        <ele>1215.2</ele>
        <time>2023-05-18T10:57:29Z</time>
      </trkpt>
      <trkpt lat="45.36384" lon="4.55269">
        <ele>1215.4</ele>
        <time>2023-05-18T10:57:30Z</time>
      </trkpt>
      <trkpt lat="45.36383" lon="4.5527">
        <ele>1215.6</ele>
        <time>2023-05-18T10:57:31Z</time>
      </trkpt>
      <trkpt lat="45.36383" lon="4.55272">
        <ele>1215.8</ele>
        <time>2023-05-18T10:57:32Z</time>
      </trkpt>
      <trkpt lat="45.36386" lon="4.55285">
        <ele>1217</ele>
        <time>2023-05-18T10:57:42Z</time>
      </trkpt>
      <trkpt lat="45.36386" lon="4.55302">
        <ele>1218</ele>
        <time>2023-05-18T10:57:54Z</time>
      </trkpt>
      <trkpt lat="45.36393" lon="4.5532">
        <ele>1220.2</ele>
        <time>2023-05-18T10:58:08Z</time>
      </trkpt>
      <trkpt lat="45.36395" lon="4.55328">
        <ele>1221</ele>
        <time>2023-05-18T10:58:14Z</time>
      </trkpt>
      <trkpt lat="45.36396" lon="4.5533">
        <ele>1221.2</ele>
        <time>2023-05-18T10:58:15Z</time>
      </trkpt>
      <trkpt lat="45.36398" lon="4.55338">
        <ele>1221.6</ele>
        <time>2023-05-18T10:58:22Z</time>
      </trkpt>
      <trkpt lat="45.36399" lon="4.55339">
        <ele>1221.8</ele>
        <time>2023-05-18T10:58:23Z</time>
      </trkpt>
      <trkpt lat="45.36398" lon="4.55341">
        <ele>1221.8</ele>
        <time>2023-05-18T10:58:24Z</time>
      </trkpt>
      <trkpt lat="45.36398" lon="4.55343">
        <ele>1222</ele>
        <time>2023-05-18T10:58:25Z</time>
      </trkpt>
      <trkpt lat="45.36398" lon="4.55345">
        <ele>1222.2</ele>
        <time>2023-05-18T10:58:27Z</time>
      </trkpt>
      <trkpt lat="45.36399" lon="4.55346">
        <ele>1222.4</ele>
        <time>2023-05-18T10:58:28Z</time>
      </trkpt>
      <trkpt lat="45.36399" lon="4.55347">
        <ele>1222.6</ele>
        <time>2023-05-18T10:58:30Z</time>
      </trkpt>
      <trkpt lat="45.36407" lon="4.55364">
        <ele>1224.2</ele>
        <time>2023-05-18T10:58:46Z</time>
      </trkpt>
      <trkpt lat="45.36416" lon="4.55387">
        <ele>1227.4</ele>
        <time>2023-05-18T10:59:08Z</time>
      </trkpt>
      <trkpt lat="45.36424" lon="4.5541">
        <ele>1229.2</ele>
        <time>2023-05-18T10:59:26Z</time>
      </trkpt>
      <trkpt lat="45.36433" lon="4.55428">
        <ele>1232.4</ele>
        <time>2023-05-18T10:59:47Z</time>
      </trkpt>
      <trkpt lat="45.36445" lon="4.55448">
        <ele>1234.8</ele>
        <time>2023-05-18T11:00:10Z</time>
      </trkpt>
      <trkpt lat="45.36459" lon="4.55471">
        <ele>1237.6</ele>
        <time>2023-05-18T11:00:34Z</time>
      </trkpt>
      <trkpt lat="45.36463" lon="4.55485">
        <ele>1238.6</ele>
        <time>2023-05-18T11:00:44Z</time>
      </trkpt>
      <trkpt lat="45.36469" lon="4.55491">
        <ele>1239.2</ele>
        <time>2023-05-18T11:00:49Z</time>
      </trkpt>
      <trkpt lat="45.36475" lon="4.55501">
        <ele>1240</ele>
        <time>2023-05-18T11:01:00Z</time>
      </trkpt>
      <trkpt lat="45.36491" lon="4.55524">
        <ele>1243.2</ele>
        <time>2023-05-18T11:01:38Z</time>
      </trkpt>
      <trkpt lat="45.36504" lon="4.5555">
        <ele>1245.6</ele>
        <time>2023-05-18T11:02:12Z</time>
      </trkpt>
      <trkpt lat="45.3651" lon="4.55553">
        <ele>1246.2</ele>
        <time>2023-05-18T11:02:17Z</time>
      </trkpt>
      <trkpt lat="45.36518" lon="4.55569">
        <ele>1247.8</ele>
        <time>2023-05-18T11:02:29Z</time>
      </trkpt>
      <trkpt lat="45.36526" lon="4.55581">
        <ele>1249</ele>
        <time>2023-05-18T11:02:39Z</time>
      </trkpt>
      <trkpt lat="45.36543" lon="4.55595">
        <ele>1250.6</ele>
        <time>2023-05-18T11:02:59Z</time>
      </trkpt>
      <trkpt lat="45.36557" lon="4.55601">
        <ele>1251.8</ele>
        <time>2023-05-18T11:03:15Z</time>
      </trkpt>
      <trkpt lat="45.36571" lon="4.55619">
        <ele>1253.6</ele>
        <time>2023-05-18T11:03:37Z</time>
      </trkpt>
      <trkpt lat="45.36577" lon="4.5563">
        <ele>1254.6</ele>
        <time>2023-05-18T11:03:47Z</time>
      </trkpt>
      <trkpt lat="45.36593" lon="4.55649">
        <ele>1257.2</ele>
        <time>2023-05-18T11:04:15Z</time>
      </trkpt>
      <trkpt lat="45.36609" lon="4.55655">
        <ele>1257.8</ele>
        <time>2023-05-18T11:04:22Z</time>
      </trkpt>
      <trkpt lat="45.36633" lon="4.55674">
        <ele>1261</ele>
        <time>2023-05-18T11:04:48Z</time>
      </trkpt>
      <trkpt lat="45.36649" lon="4.55679">
        <ele>1264</ele>
        <time>2023-05-18T11:05:13Z</time>
      </trkpt>
      <trkpt lat="45.36664" lon="4.55686">
        <ele>1267.2</ele>
        <time>2023-05-18T11:05:35Z</time>
      </trkpt>
      <trkpt lat="45.36677" lon="4.55691">
        <ele>1268.6</ele>
        <time>2023-05-18T11:05:48Z</time>
      </trkpt>
      <trkpt lat="45.36692" lon="4.55699">
        <ele>1271.6</ele>
        <time>2023-05-18T11:06:07Z</time>
      </trkpt>
      <trkpt lat="45.36702" lon="4.55708">
        <ele>1274.2</ele>
        <time>2023-05-18T11:06:24Z</time>
      </trkpt>
      <trkpt lat="45.36721" lon="4.55715">
        <ele>1277.4</ele>
        <time>2023-05-18T11:06:43Z</time>
      </trkpt>
      <trkpt lat="45.36745" lon="4.55715">
        <ele>1280.4</ele>
        <time>2023-05-18T11:07:04Z</time>
      </trkpt>
      <trkpt lat="45.36754" lon="4.55732">
        <ele>1282.6</ele>
        <time>2023-05-18T11:07:21Z</time>
      </trkpt>
      <trkpt lat="45.36773" lon="4.55742">
        <ele>1284.8</ele>
        <time>2023-05-18T11:07:40Z</time>
      </trkpt>
      <trkpt lat="45.36775" lon="4.55742">
        <ele>1284.8</ele>
        <time>2023-05-18T11:07:41Z</time>
      </trkpt>
      <trkpt lat="45.36793" lon="4.55742">
        <ele>1286.6</ele>
        <time>2023-05-18T11:08:33Z</time>
      </trkpt>
      <trkpt lat="45.36811" lon="4.55747">
        <ele>1288.2</ele>
        <time>2023-05-18T11:08:49Z</time>
      </trkpt>
      <trkpt lat="45.36833" lon="4.55745">
        <ele>1290.2</ele>
        <time>2023-05-18T11:09:03Z</time>
      </trkpt>
      <trkpt lat="45.36846" lon="4.55746">
        <ele>1292.4</ele>
        <time>2023-05-18T11:09:19Z</time>
      </trkpt>
      <trkpt lat="45.36892" lon="4.55771">
        <ele>1295.4</ele>
        <time>2023-05-18T11:10:07Z</time>
      </trkpt>
      <trkpt lat="45.36898" lon="4.55775">
        <ele>1297</ele>
        <time>2023-05-18T11:10:23Z</time>
      </trkpt>
      <trkpt lat="45.36899" lon="4.55776">
        <ele>1297</ele>
        <time>2023-05-18T11:10:24Z</time>
      </trkpt>
      <trkpt lat="45.36936" lon="4.55797">
        <ele>1299.2</ele>
        <time>2023-05-18T11:10:55Z</time>
      </trkpt>
      <trkpt lat="45.36951" lon="4.55803">
        <ele>1300</ele>
        <time>2023-05-18T11:11:13Z</time>
      </trkpt>
      <trkpt lat="45.36979" lon="4.55828">
        <ele>1300.8</ele>
        <time>2023-05-18T11:11:41Z</time>
      </trkpt>
      <trkpt lat="45.36989" lon="4.55844">
        <ele>1302</ele>
        <time>2023-05-18T11:11:56Z</time>
      </trkpt>
      <trkpt lat="45.36997" lon="4.55857">
        <ele>1303</ele>
        <time>2023-05-18T11:12:11Z</time>
      </trkpt>
      <trkpt lat="45.37019" lon="4.55891">
        <ele>1304</ele>
        <time>2023-05-18T11:12:34Z</time>
      </trkpt>
      <trkpt lat="45.37021" lon="4.55899">
        <ele>1304.4</ele>
        <time>2023-05-18T11:12:46Z</time>
      </trkpt>
      <trkpt lat="45.37034" lon="4.55914">
        <ele>1305.2</ele>
        <time>2023-05-18T11:13:02Z</time>
      </trkpt>
      <trkpt lat="45.37049" lon="4.55919">
        <ele>1306.4</ele>
        <time>2023-05-18T11:13:17Z</time>
      </trkpt>
      <trkpt lat="45.3706" lon="4.55926">
        <ele>1307.4</ele>
        <time>2023-05-18T11:13:34Z</time>
      </trkpt>
      <trkpt lat="45.37077" lon="4.5594">
        <ele>1307.6</ele>
        <time>2023-05-18T11:13:51Z</time>
      </trkpt>
      <trkpt lat="45.37095" lon="4.55952">
        <ele>1307.6</ele>
        <time>2023-05-18T11:14:01Z</time>
      </trkpt>
      <trkpt lat="45.37099" lon="4.55952">
        <ele>1307.6</ele>
        <time>2023-05-18T11:14:06Z</time>
      </trkpt>
      <trkpt lat="45.3711" lon="4.55957">
        <ele>1307.8</ele>
        <time>2023-05-18T11:14:11Z</time>
      </trkpt>
      <trkpt lat="45.37129" lon="4.5596">
        <ele>1308</ele>
        <time>2023-05-18T11:14:28Z</time>
      </trkpt>
      <trkpt lat="45.37141" lon="4.55972">
        <ele>1307.6</ele>
        <time>2023-05-18T11:14:48Z</time>
      </trkpt>
      <trkpt lat="45.37182" lon="4.56009">
        <ele>1305.6</ele>
        <time>2023-05-18T11:15:31Z</time>
      </trkpt>
      <trkpt lat="45.37208" lon="4.56027">
        <ele>1305.4</ele>
        <time>2023-05-18T11:15:41Z</time>
      </trkpt>
      <trkpt lat="45.37224" lon="4.56035">
        <ele>1305</ele>
        <time>2023-05-18T11:15:52Z</time>
      </trkpt>
      <trkpt lat="45.37231" lon="4.56046">
        <ele>1304.6</ele>
        <time>2023-05-18T11:16:02Z</time>
      </trkpt>
      <trkpt lat="45.37238" lon="4.5606">
        <ele>1304</ele>
        <time>2023-05-18T11:16:14Z</time>
      </trkpt>
      <trkpt lat="45.37245" lon="4.56065">
        <ele>1304</ele>
        <time>2023-05-18T11:16:24Z</time>
      </trkpt>
      <trkpt lat="45.37244" lon="4.56074">
        <ele>1303.6</ele>
        <time>2023-05-18T11:16:40Z</time>
      </trkpt>
      <trkpt lat="45.37249" lon="4.56087">
        <ele>1303.4</ele>
        <time>2023-05-18T11:16:54Z</time>
      </trkpt>
      <trkpt lat="45.37262" lon="4.56102">
        <ele>1303.2</ele>
        <time>2023-05-18T11:17:02Z</time>
      </trkpt>
      <trkpt lat="45.37272" lon="4.56131">
        <ele>1302.8</ele>
        <time>2023-05-18T11:17:22Z</time>
      </trkpt>
      <trkpt lat="45.37277" lon="4.56141">
        <ele>1302.6</ele>
        <time>2023-05-18T11:17:36Z</time>
      </trkpt>
      <trkpt lat="45.37277" lon="4.56136">
        <ele>1302.2</ele>
        <time>2023-05-18T11:17:58Z</time>
      </trkpt>
      <trkpt lat="45.37275" lon="4.56131">
        <ele>1302.4</ele>
        <time>2023-05-18T11:18:21Z</time>
      </trkpt>
      <trkpt lat="45.3728" lon="4.56135">
        <ele>1302.4</ele>
        <time>2023-05-18T11:18:35Z</time>
      </trkpt>
      <trkpt lat="45.37285" lon="4.56139">
        <ele>1302</ele>
        <time>2023-05-18T11:18:50Z</time>
      </trkpt>
      <trkpt lat="45.37283" lon="4.5614">
        <ele>1302.4</ele>
        <time>2023-05-18T11:19:08Z</time>
      </trkpt>
      <trkpt lat="45.37288" lon="4.56154">
        <ele>1302.2</ele>
        <time>2023-05-18T11:19:32Z</time>
      </trkpt>
      <trkpt lat="45.373" lon="4.56157">
        <ele>1302.2</ele>
        <time>2023-05-18T11:19:53Z</time>
      </trkpt>
      <trkpt lat="45.37313" lon="4.56181">
        <ele>1302</ele>
        <time>2023-05-18T11:20:13Z</time>
      </trkpt>
      <trkpt lat="45.37315" lon="4.56184">
        <ele>1302</ele>
        <time>2023-05-18T11:20:27Z</time>
      </trkpt>
      <trkpt lat="45.37322" lon="4.56201">
        <ele>1302</ele>
        <time>2023-05-18T11:20:41Z</time>
      </trkpt>
      <trkpt lat="45.37326" lon="4.56231">
        <ele>1301.6</ele>
        <time>2023-05-18T11:21:05Z</time>
      </trkpt>
      <trkpt lat="45.37329" lon="4.56244">
        <ele>1301.2</ele>
        <time>2023-05-18T11:21:18Z</time>
      </trkpt>
      <trkpt lat="45.37334" lon="4.56276">
        <ele>1300.8</ele>
        <time>2023-05-18T11:21:37Z</time>
      </trkpt>
      <trkpt lat="45.37336" lon="4.56316">
        <ele>1300.8</ele>
        <time>2023-05-18T11:21:55Z</time>
      </trkpt>
      <trkpt lat="45.37336" lon="4.56318">
        <ele>1300.8</ele>
        <time>2023-05-18T11:22:13Z</time>
      </trkpt>
      <trkpt lat="45.37338" lon="4.56338">
        <ele>1300.4</ele>
        <time>2023-05-18T11:22:47Z</time>
      </trkpt>
      <trkpt lat="45.37336" lon="4.56353">
        <ele>1300</ele>
        <time>2023-05-18T11:23:00Z</time>
      </trkpt>
      <trkpt lat="45.37339" lon="4.56576">
        <ele>1303</ele>
        <time>2023-05-18T11:28:15Z</time>
      </trkpt>
      <trkpt lat="45.37321" lon="4.56621">
        <ele>1303.4</ele>
        <time>2023-05-18T11:29:15Z</time>
      </trkpt>
      <trkpt lat="45.37323" lon="4.56644">
        <ele>1303.8</ele>
        <time>2023-05-18T11:29:34Z</time>
      </trkpt>
      <trkpt lat="45.37319" lon="4.56665">
        <ele>1303.8</ele>
        <time>2023-05-18T11:29:57Z</time>
      </trkpt>
      <trkpt lat="45.37319" lon="4.5667">
        <ele>1303.8</ele>
        <time>2023-05-18T11:30:11Z</time>
      </trkpt>
      <trkpt lat="45.37319" lon="4.56667">
        <ele>1304.2</ele>
        <time>2023-05-18T11:30:39Z</time>
      </trkpt>
      <trkpt lat="45.37315" lon="4.56663">
        <ele>1304.4</ele>
        <time>2023-05-18T11:31:16Z</time>
      </trkpt>
      <trkpt lat="45.37312" lon="4.56665">
        <ele>1304.4</ele>
        <time>2023-05-18T11:31:26Z</time>
      </trkpt>
      <trkpt lat="45.3731" lon="4.56668">
        <ele>1304.6</ele>
        <time>2023-05-18T11:31:49Z</time>
      </trkpt>
      <trkpt lat="45.37307" lon="4.5667">
        <ele>1304.6</ele>
        <time>2023-05-18T11:32:08Z</time>
      </trkpt>
      <trkpt lat="45.37305" lon="4.56674">
        <ele>1304.6</ele>
        <time>2023-05-18T11:32:20Z</time>
      </trkpt>
      <trkpt lat="45.37306" lon="4.5667">
        <ele>1304</ele>
        <time>2023-05-18T11:32:59Z</time>
      </trkpt>
      <trkpt lat="45.37312" lon="4.56667">
        <ele>1303.8</ele>
        <time>2023-05-18T11:33:47Z</time>
      </trkpt>
      <trkpt lat="45.37316" lon="4.56668">
        <ele>1304.2</ele>
        <time>2023-05-18T11:34:29Z</time>
      </trkpt>
      <trkpt lat="45.37318" lon="4.56666">
        <ele>1304</ele>
        <time>2023-05-18T11:34:49Z</time>
      </trkpt>
      <trkpt lat="45.37316" lon="4.5666">
        <ele>1303.8</ele>
        <time>2023-05-18T11:35:09Z</time>
      </trkpt>
      <trkpt lat="45.37316" lon="4.56665">
        <ele>1303.6</ele>
        <time>2023-05-18T11:35:32Z</time>
      </trkpt>
      <trkpt lat="45.37316" lon="4.56665">
        <ele>1303.6</ele>
        <time>2023-05-18T11:35:42Z</time>
      </trkpt>
      <trkpt lat="45.37325" lon="4.56665">
        <ele>1303</ele>
        <time>2023-05-18T11:37:34Z</time>
      </trkpt>
      <trkpt lat="45.37324" lon="4.56668">
        <ele>1303</ele>
        <time>2023-05-18T11:37:37Z</time>
      </trkpt>
      <trkpt lat="45.37322" lon="4.5666">
        <ele>1303.6</ele>
        <time>2023-05-18T11:38:04Z</time>
      </trkpt>
      <trkpt lat="45.37314" lon="4.56668">
        <ele>1303.2</ele>
        <time>2023-05-18T11:38:34Z</time>
      </trkpt>
      <trkpt lat="45.37312" lon="4.56674">
        <ele>1303</ele>
        <time>2023-05-18T11:38:39Z</time>
      </trkpt>
      <trkpt lat="45.37306" lon="4.5669">
        <ele>1303</ele>
        <time>2023-05-18T11:38:50Z</time>
      </trkpt>
      <trkpt lat="45.37313" lon="4.5674">
        <ele>1302.6</ele>
        <time>2023-05-18T11:39:25Z</time>
      </trkpt>
      <trkpt lat="45.37356" lon="4.56791">
        <ele>1299.6</ele>
        <time>2023-05-18T11:40:26Z</time>
      </trkpt>
      <trkpt lat="45.37509" lon="4.57058">
        <ele>1296.6</ele>
        <time>2023-05-18T11:44:10Z</time>
      </trkpt>
      <trkpt lat="45.37502" lon="4.57157">
        <ele>1293.4</ele>
        <time>2023-05-18T11:45:09Z</time>
      </trkpt>
      <trkpt lat="45.37508" lon="4.57185">
        <ele>1290.2</ele>
        <time>2023-05-18T11:45:32Z</time>
      </trkpt>
      <trkpt lat="45.37512" lon="4.57219">
        <ele>1287.2</ele>
        <time>2023-05-18T11:45:51Z</time>
      </trkpt>
      <trkpt lat="45.37646" lon="4.57395">
        <ele>1285.8</ele>
        <time>2023-05-18T11:48:26Z</time>
      </trkpt>
      <trkpt lat="45.37719" lon="4.57459">
        <ele>1285</ele>
        <time>2023-05-18T11:49:28Z</time>
      </trkpt>
      <trkpt lat="45.37752" lon="4.5752">
        <ele>1287.2</ele>
        <time>2023-05-18T11:50:40Z</time>
      </trkpt>
      <trkpt lat="45.3775" lon="4.57545">
        <ele>1287.6</ele>
        <time>2023-05-18T11:50:55Z</time>
      </trkpt>
      <trkpt lat="45.37709" lon="4.5765">
        <ele>1285.8</ele>
        <time>2023-05-18T11:52:21Z</time>
      </trkpt>
      <trkpt lat="45.3764" lon="4.57739">
        <ele>1285.4</ele>
        <time>2023-05-18T11:53:40Z</time>
      </trkpt>
      <trkpt lat="45.3758" lon="4.57816">
        <ele>1286.8</ele>
        <time>2023-05-18T11:54:43Z</time>
      </trkpt>
      <trkpt lat="45.37577" lon="4.57835">
        <ele>1287</ele>
        <time>2023-05-18T11:54:56Z</time>
      </trkpt>
      <trkpt lat="45.37579" lon="4.57834">
        <ele>1287</ele>
        <time>2023-05-18T11:54:59Z</time>
      </trkpt>
      <trkpt lat="45.37543" lon="4.57869">
        <ele>1286.6</ele>
        <time>2023-05-18T11:55:11Z</time>
      </trkpt>
      <trkpt lat="45.3752" lon="4.57877">
        <ele>1286.4</ele>
        <time>2023-05-18T11:55:25Z</time>
      </trkpt>
      <trkpt lat="45.37517" lon="4.57885">
        <ele>1286.4</ele>
        <time>2023-05-18T11:55:30Z</time>
      </trkpt>
      <trkpt lat="45.37494" lon="4.57917">
        <ele>1286.4</ele>
        <time>2023-05-18T11:55:51Z</time>
      </trkpt>
      <trkpt lat="45.37488" lon="4.57949">
        <ele>1286.2</ele>
        <time>2023-05-18T11:56:05Z</time>
      </trkpt>
      <trkpt lat="45.37484" lon="4.57952">
        <ele>1286.2</ele>
        <time>2023-05-18T11:56:09Z</time>
      </trkpt>
      <trkpt lat="45.37475" lon="4.57951">
        <ele>1286.4</ele>
        <time>2023-05-18T11:56:21Z</time>
      </trkpt>
      <trkpt lat="45.37475" lon="4.57952">
        <ele>1286.6</ele>
        <time>2023-05-18T11:56:24Z</time>
      </trkpt>
      <trkpt lat="45.37476" lon="4.57953">
        <ele>1286.6</ele>
        <time>2023-05-18T11:56:26Z</time>
      </trkpt>
      <trkpt lat="45.37483" lon="4.57955">
        <ele>1286.6</ele>
        <time>2023-05-18T11:56:32Z</time>
      </trkpt>
      <trkpt lat="45.37486" lon="4.57951">
        <ele>1286.6</ele>
        <time>2023-05-18T11:56:38Z</time>
      </trkpt>
      <trkpt lat="45.37487" lon="4.5795">
        <ele>1287.2</ele>
        <time>2023-05-18T11:56:44Z</time>
      </trkpt>
      <trkpt lat="45.37489" lon="4.57962">
        <ele>1287.2</ele>
        <time>2023-05-18T11:56:48Z</time>
      </trkpt>
      <trkpt lat="45.37487" lon="4.57971">
        <ele>1287.2</ele>
        <time>2023-05-18T11:56:54Z</time>
      </trkpt>
      <trkpt lat="45.37489" lon="4.57975">
        <ele>1287.2</ele>
        <time>2023-05-18T11:56:59Z</time>
      </trkpt>
      <trkpt lat="45.3749" lon="4.57978">
        <ele>1287.2</ele>
        <time>2023-05-18T11:57:04Z</time>
      </trkpt>
      <trkpt lat="45.37491" lon="4.57981">
        <ele>1287.2</ele>
        <time>2023-05-18T11:57:06Z</time>
      </trkpt>
      <trkpt lat="45.37493" lon="4.57984">
        <ele>1287.4</ele>
        <time>2023-05-18T11:57:11Z</time>
      </trkpt>
      <trkpt lat="45.37494" lon="4.57995">
        <ele>1287.4</ele>
        <time>2023-05-18T11:57:20Z</time>
      </trkpt>
      <trkpt lat="45.37488" lon="4.57984">
        <ele>1287.6</ele>
        <time>2023-05-18T11:57:24Z</time>
      </trkpt>
      <trkpt lat="45.37476" lon="4.57968">
        <ele>1287.6</ele>
        <time>2023-05-18T11:57:31Z</time>
      </trkpt>
      <trkpt lat="45.3748" lon="4.57952">
        <ele>1287.6</ele>
        <time>2023-05-18T11:57:35Z</time>
      </trkpt>
      <trkpt lat="45.3748" lon="4.57946">
        <ele>1287.6</ele>
        <time>2023-05-18T11:57:37Z</time>
      </trkpt>
      <trkpt lat="45.37466" lon="4.57966">
        <ele>1287.4</ele>
        <time>2023-05-18T11:57:51Z</time>
      </trkpt>
      <trkpt lat="45.3747" lon="4.57969">
        <ele>1287.2</ele>
        <time>2023-05-18T11:58:04Z</time>
      </trkpt>
      <trkpt lat="45.37459" lon="4.57976">
        <ele>1287.6</ele>
        <time>2023-05-18T11:58:20Z</time>
      </trkpt>
      <trkpt lat="45.37468" lon="4.57986">
        <ele>1287.6</ele>
        <time>2023-05-18T11:58:25Z</time>
      </trkpt>
      <trkpt lat="45.37469" lon="4.57986">
        <ele>1287.6</ele>
        <time>2023-05-18T11:58:26Z</time>
      </trkpt>
      <trkpt lat="45.37469" lon="4.57988">
        <ele>1287.6</ele>
        <time>2023-05-18T11:58:27Z</time>
      </trkpt>
      <trkpt lat="45.37469" lon="4.5799">
        <ele>1287.6</ele>
        <time>2023-05-18T11:58:28Z</time>
      </trkpt>
      <trkpt lat="45.37468" lon="4.57992">
        <ele>1287.6</ele>
        <time>2023-05-18T11:58:29Z</time>
      </trkpt>
      <trkpt lat="45.37469" lon="4.57997">
        <ele>1287.6</ele>
        <time>2023-05-18T11:58:30Z</time>
      </trkpt>
      <trkpt lat="45.37469" lon="4.58001">
        <ele>1287.6</ele>
        <time>2023-05-18T11:58:31Z</time>
      </trkpt>
      <trkpt lat="45.37465" lon="4.58001">
        <ele>1287.4</ele>
        <time>2023-05-18T11:58:40Z</time>
      </trkpt>
      <trkpt lat="45.37465" lon="4.57998">
        <ele>1287.4</ele>
        <time>2023-05-18T11:58:41Z</time>
      </trkpt>
      <trkpt lat="45.37454" lon="4.57992">
        <ele>1287.6</ele>
        <time>2023-05-18T11:58:52Z</time>
      </trkpt>
      <trkpt lat="45.37475" lon="4.57991">
        <ele>1287.6</ele>
        <time>2023-05-18T11:59:02Z</time>
      </trkpt>
      <trkpt lat="45.37491" lon="4.58017">
        <ele>1287.6</ele>
        <time>2023-05-18T11:59:18Z</time>
      </trkpt>
      <trkpt lat="45.37506" lon="4.58048">
        <ele>1288.2</ele>
        <time>2023-05-18T11:59:44Z</time>
      </trkpt>
      <trkpt lat="45.37511" lon="4.58064">
        <ele>1289.2</ele>
        <time>2023-05-18T12:00:02Z</time>
      </trkpt>
      <trkpt lat="45.37521" lon="4.58089">
        <ele>1290</ele>
        <time>2023-05-18T12:00:22Z</time>
      </trkpt>
      <trkpt lat="45.37528" lon="4.58112">
        <ele>1291.2</ele>
        <time>2023-05-18T12:00:42Z</time>
      </trkpt>
      <trkpt lat="45.37532" lon="4.5812">
        <ele>1291.6</ele>
        <time>2023-05-18T12:00:47Z</time>
      </trkpt>
      <trkpt lat="45.37534" lon="4.58125">
        <ele>1292</ele>
        <time>2023-05-18T12:00:50Z</time>
      </trkpt>
      <trkpt lat="45.37542" lon="4.58143">
        <ele>1293.8</ele>
        <time>2023-05-18T12:01:03Z</time>
      </trkpt>
      <trkpt lat="45.37549" lon="4.5816">
        <ele>1295.4</ele>
        <time>2023-05-18T12:01:13Z</time>
      </trkpt>
      <trkpt lat="45.37549" lon="4.58175">
        <ele>1296.4</ele>
        <time>2023-05-18T12:01:24Z</time>
      </trkpt>
      <trkpt lat="45.37549" lon="4.58178">
        <ele>1297.2</ele>
        <time>2023-05-18T12:01:31Z</time>
      </trkpt>
      <trkpt lat="45.37547" lon="4.5818">
        <ele>1297.2</ele>
        <time>2023-05-18T12:01:33Z</time>
      </trkpt>
      <trkpt lat="45.37547" lon="4.58182">
        <ele>1297.6</ele>
        <time>2023-05-18T12:01:37Z</time>
      </trkpt>
      <trkpt lat="45.37558" lon="4.58212">
        <ele>1299.6</ele>
        <time>2023-05-18T12:01:51Z</time>
      </trkpt>
      <trkpt lat="45.37561" lon="4.58224">
        <ele>1300.8</ele>
        <time>2023-05-18T12:02:00Z</time>
      </trkpt>
      <trkpt lat="45.37568" lon="4.58235">
        <ele>1302</ele>
        <time>2023-05-18T12:02:09Z</time>
      </trkpt>
      <trkpt lat="45.37571" lon="4.58255">
        <ele>1303.4</ele>
        <time>2023-05-18T12:02:22Z</time>
      </trkpt>
      <trkpt lat="45.37578" lon="4.5827">
        <ele>1305.2</ele>
        <time>2023-05-18T12:02:32Z</time>
      </trkpt>
      <trkpt lat="45.37583" lon="4.58277">
        <ele>1306.2</ele>
        <time>2023-05-18T12:02:40Z</time>
      </trkpt>
      <trkpt lat="45.37588" lon="4.58288">
        <ele>1307.2</ele>
        <time>2023-05-18T12:02:53Z</time>
      </trkpt>
      <trkpt lat="45.3759" lon="4.58293">
        <ele>1307.8</ele>
        <time>2023-05-18T12:02:59Z</time>
      </trkpt>
      <trkpt lat="45.37581" lon="4.58316">
        <ele>1309</ele>
        <time>2023-05-18T12:03:14Z</time>
      </trkpt>
      <trkpt lat="45.3758" lon="4.58318">
        <ele>1309</ele>
        <time>2023-05-18T12:03:15Z</time>
      </trkpt>
      <trkpt lat="45.37587" lon="4.58337">
        <ele>1309.2</ele>
        <time>2023-05-18T12:03:28Z</time>
      </trkpt>
      <trkpt lat="45.37575" lon="4.58352">
        <ele>1310</ele>
        <time>2023-05-18T12:03:40Z</time>
      </trkpt>
      <trkpt lat="45.37574" lon="4.58365">
        <ele>1310.8</ele>
        <time>2023-05-18T12:03:48Z</time>
      </trkpt>
      <trkpt lat="45.37589" lon="4.58382">
        <ele>1311.8</ele>
        <time>2023-05-18T12:04:01Z</time>
      </trkpt>
      <trkpt lat="45.37587" lon="4.58394">
        <ele>1312.6</ele>
        <time>2023-05-18T12:04:09Z</time>
      </trkpt>
      <trkpt lat="45.37601" lon="4.58406">
        <ele>1314</ele>
        <time>2023-05-18T12:04:18Z</time>
      </trkpt>
      <trkpt lat="45.37596" lon="4.58415">
        <ele>1315.2</ele>
        <time>2023-05-18T12:04:31Z</time>
      </trkpt>
      <trkpt lat="45.37595" lon="4.58416">
        <ele>1315.4</ele>
        <time>2023-05-18T12:04:50Z</time>
      </trkpt>
      <trkpt lat="45.37597" lon="4.58415">
        <ele>1315.6</ele>
        <time>2023-05-18T12:04:53Z</time>
      </trkpt>
      <trkpt lat="45.37612" lon="4.58427">
        <ele>1315.6</ele>
        <time>2023-05-18T12:04:59Z</time>
      </trkpt>
      <trkpt lat="45.37615" lon="4.58428">
        <ele>1315.6</ele>
        <time>2023-05-18T12:05:02Z</time>
      </trkpt>
      <trkpt lat="45.37618" lon="4.58422">
        <ele>1316.2</ele>
        <time>2023-05-18T12:05:09Z</time>
      </trkpt>
      <trkpt lat="45.37613" lon="4.58416">
        <ele>1316.8</ele>
        <time>2023-05-18T12:05:14Z</time>
      </trkpt>
      <trkpt lat="45.37606" lon="4.584">
        <ele>1318</ele>
        <time>2023-05-18T12:05:22Z</time>
      </trkpt>
      <trkpt lat="45.37594" lon="4.58416">
        <ele>1318.2</ele>
        <time>2023-05-18T12:05:35Z</time>
      </trkpt>
      <trkpt lat="45.37594" lon="4.58417">
        <ele>1318</ele>
        <time>2023-05-18T12:05:37Z</time>
      </trkpt>
      <trkpt lat="45.3761" lon="4.5841">
        <ele>1317.8</ele>
        <time>2023-05-18T12:05:44Z</time>
      </trkpt>
      <trkpt lat="45.37611" lon="4.58407">
        <ele>1318.2</ele>
        <time>2023-05-18T12:05:54Z</time>
      </trkpt>
      <trkpt lat="45.37611" lon="4.58408">
        <ele>1318.2</ele>
        <time>2023-05-18T12:05:55Z</time>
      </trkpt>
      <trkpt lat="45.37606" lon="4.58415">
        <ele>1319.4</ele>
        <time>2023-05-18T12:06:02Z</time>
      </trkpt>
      <trkpt lat="45.37598" lon="4.58412">
        <ele>1319.8</ele>
        <time>2023-05-18T12:06:12Z</time>
      </trkpt>
      <trkpt lat="45.37599" lon="4.58417">
        <ele>1319.6</ele>
        <time>2023-05-18T12:06:22Z</time>
      </trkpt>
      <trkpt lat="45.37592" lon="4.58408">
        <ele>1319.6</ele>
        <time>2023-05-18T12:06:31Z</time>
      </trkpt>
      <trkpt lat="45.37589" lon="4.58407">
        <ele>1319.4</ele>
        <time>2023-05-18T12:06:39Z</time>
      </trkpt>
      <trkpt lat="45.37582" lon="4.58404">
        <ele>1319.4</ele>
        <time>2023-05-18T12:06:51Z</time>
      </trkpt>
      <trkpt lat="45.37582" lon="4.58407">
        <ele>1319.4</ele>
        <time>2023-05-18T12:06:56Z</time>
      </trkpt>
      <trkpt lat="45.37599" lon="4.58416">
        <ele>1319.4</ele>
        <time>2023-05-18T12:07:01Z</time>
      </trkpt>
      <trkpt lat="45.37622" lon="4.58427">
        <ele>1319.4</ele>
        <time>2023-05-18T12:07:09Z</time>
      </trkpt>
      <trkpt lat="45.37632" lon="4.58434">
        <ele>1320</ele>
        <time>2023-05-18T12:07:15Z</time>
      </trkpt>
      <trkpt lat="45.37641" lon="4.58441">
        <ele>1320.8</ele>
        <time>2023-05-18T12:07:21Z</time>
      </trkpt>
      <trkpt lat="45.37647" lon="4.58446">
        <ele>1321</ele>
        <time>2023-05-18T12:07:23Z</time>
      </trkpt>
      <trkpt lat="45.37659" lon="4.58452">
        <ele>1322</ele>
        <time>2023-05-18T12:07:32Z</time>
      </trkpt>
      <trkpt lat="45.37668" lon="4.58458">
        <ele>1322.6</ele>
        <time>2023-05-18T12:07:40Z</time>
      </trkpt>
      <trkpt lat="45.3768" lon="4.58457">
        <ele>1323.2</ele>
        <time>2023-05-18T12:07:50Z</time>
      </trkpt>
      <trkpt lat="45.37687" lon="4.5845">
        <ele>1325.6</ele>
        <time>2023-05-18T12:08:07Z</time>
      </trkpt>
      <trkpt lat="45.37697" lon="4.58445">
        <ele>1327</ele>
        <time>2023-05-18T12:08:20Z</time>
      </trkpt>
      <trkpt lat="45.37712" lon="4.58442">
        <ele>1329.2</ele>
        <time>2023-05-18T12:08:36Z</time>
      </trkpt>
      <trkpt lat="45.37734" lon="4.58446">
        <ele>1332</ele>
        <time>2023-05-18T12:08:55Z</time>
      </trkpt>
      <trkpt lat="45.37742" lon="4.58449">
        <ele>1333</ele>
        <time>2023-05-18T12:09:06Z</time>
      </trkpt>
      <trkpt lat="45.37753" lon="4.58452">
        <ele>1334.8</ele>
        <time>2023-05-18T12:09:23Z</time>
      </trkpt>
      <trkpt lat="45.37756" lon="4.58448">
        <ele>1336.4</ele>
        <time>2023-05-18T12:09:36Z</time>
      </trkpt>
      <trkpt lat="45.37758" lon="4.58449">
        <ele>1337.2</ele>
        <time>2023-05-18T12:09:39Z</time>
      </trkpt>
      <trkpt lat="45.37771" lon="4.58452">
        <ele>1338.6</ele>
        <time>2023-05-18T12:09:48Z</time>
      </trkpt>
      <trkpt lat="45.37785" lon="4.58439">
        <ele>1341.6</ele>
        <time>2023-05-18T12:10:07Z</time>
      </trkpt>
      <trkpt lat="45.37793" lon="4.58438">
        <ele>1343</ele>
        <time>2023-05-18T12:10:16Z</time>
      </trkpt>
      <trkpt lat="45.37797" lon="4.58439">
        <ele>1344.4</ele>
        <time>2023-05-18T12:10:29Z</time>
      </trkpt>
      <trkpt lat="45.37815" lon="4.58432">
        <ele>1347.2</ele>
        <time>2023-05-18T12:10:52Z</time>
      </trkpt>
      <trkpt lat="45.37815" lon="4.58431">
        <ele>1347.2</ele>
        <time>2023-05-18T12:10:53Z</time>
      </trkpt>
      <trkpt lat="45.37833" lon="4.58438">
        <ele>1349.8</ele>
        <time>2023-05-18T12:11:25Z</time>
      </trkpt>
      <trkpt lat="45.37854" lon="4.58433">
        <ele>1352.4</ele>
        <time>2023-05-18T12:11:45Z</time>
      </trkpt>
      <trkpt lat="45.3787" lon="4.5844">
        <ele>1355.6</ele>
        <time>2023-05-18T12:12:03Z</time>
      </trkpt>
      <trkpt lat="45.37887" lon="4.58429">
        <ele>1358.6</ele>
        <time>2023-05-18T12:12:27Z</time>
      </trkpt>
      <trkpt lat="45.37881" lon="4.58429">
        <ele>1359.4</ele>
        <time>2023-05-18T12:12:59Z</time>
      </trkpt>
      <trkpt lat="45.37893" lon="4.58435">
        <ele>1360.2</ele>
        <time>2023-05-18T12:13:17Z</time>
      </trkpt>
      <trkpt lat="45.37898" lon="4.58435">
        <ele>1360.8</ele>
        <time>2023-05-18T12:13:22Z</time>
      </trkpt>
      <trkpt lat="45.37911" lon="4.58437">
        <ele>1363</ele>
        <time>2023-05-18T12:13:37Z</time>
      </trkpt>
      <trkpt lat="45.37928" lon="4.58439">
        <ele>1364.6</ele>
        <time>2023-05-18T12:13:55Z</time>
      </trkpt>
      <trkpt lat="45.37934" lon="4.58444">
        <ele>1365.6</ele>
        <time>2023-05-18T12:14:06Z</time>
      </trkpt>
      <trkpt lat="45.37942" lon="4.5844">
        <ele>1366.6</ele>
        <time>2023-05-18T12:14:15Z</time>
      </trkpt>
      <trkpt lat="45.37943" lon="4.5844">
        <ele>1366.6</ele>
        <time>2023-05-18T12:14:16Z</time>
      </trkpt>
      <trkpt lat="45.37946" lon="4.58442">
        <ele>1367.4</ele>
        <time>2023-05-18T12:14:25Z</time>
      </trkpt>
      <trkpt lat="45.37948" lon="4.58441">
        <ele>1367.6</ele>
        <time>2023-05-18T12:14:27Z</time>
      </trkpt>
      <trkpt lat="45.37951" lon="4.58439">
        <ele>1368.2</ele>
        <time>2023-05-18T12:14:31Z</time>
      </trkpt>
      <trkpt lat="45.37952" lon="4.58439">
        <ele>1368.2</ele>
        <time>2023-05-18T12:14:32Z</time>
      </trkpt>
      <trkpt lat="45.3796" lon="4.58435">
        <ele>1369.6</ele>
        <time>2023-05-18T12:14:46Z</time>
      </trkpt>
      <trkpt lat="45.37962" lon="4.58435">
        <ele>1369.8</ele>
        <time>2023-05-18T12:14:47Z</time>
      </trkpt>
      <trkpt lat="45.37968" lon="4.58432">
        <ele>1371.2</ele>
        <time>2023-05-18T12:15:00Z</time>
      </trkpt>
      <trkpt lat="45.37969" lon="4.58432">
        <ele>1371.4</ele>
        <time>2023-05-18T12:15:01Z</time>
      </trkpt>
      <trkpt lat="45.3797" lon="4.58432">
        <ele>1371.4</ele>
        <time>2023-05-18T12:15:02Z</time>
      </trkpt>
      <trkpt lat="45.37972" lon="4.58432">
        <ele>1371.6</ele>
        <time>2023-05-18T12:15:03Z</time>
      </trkpt>
      <trkpt lat="45.37987" lon="4.58426">
        <ele>1373.8</ele>
        <time>2023-05-18T12:15:24Z</time>
      </trkpt>
      <trkpt lat="45.37988" lon="4.58426">
        <ele>1374</ele>
        <time>2023-05-18T12:15:25Z</time>
      </trkpt>
      <trkpt lat="45.37989" lon="4.58426">
        <ele>1374</ele>
        <time>2023-05-18T12:15:26Z</time>
      </trkpt>
      <trkpt lat="45.38007" lon="4.58433">
        <ele>1376.6</ele>
        <time>2023-05-18T12:15:53Z</time>
      </trkpt>
      <trkpt lat="45.38027" lon="4.58438">
        <ele>1378.2</ele>
        <time>2023-05-18T12:16:17Z</time>
      </trkpt>
      <trkpt lat="45.38042" lon="4.5844">
        <ele>1379.4</ele>
        <time>2023-05-18T12:16:35Z</time>
      </trkpt>
      <trkpt lat="45.38059" lon="4.58438">
        <ele>1381.4</ele>
        <time>2023-05-18T12:16:55Z</time>
      </trkpt>
      <trkpt lat="45.38072" lon="4.58437">
        <ele>1383.4</ele>
        <time>2023-05-18T12:17:11Z</time>
      </trkpt>
      <trkpt lat="45.38089" lon="4.58444">
        <ele>1384.4</ele>
        <time>2023-05-18T12:17:27Z</time>
      </trkpt>
      <trkpt lat="45.38101" lon="4.58445">
        <ele>1385.6</ele>
        <time>2023-05-18T12:17:42Z</time>
      </trkpt>
      <trkpt lat="45.38104" lon="4.58447">
        <ele>1385.6</ele>
        <time>2023-05-18T12:17:51Z</time>
      </trkpt>
      <trkpt lat="45.38125" lon="4.58455">
        <ele>1385.2</ele>
        <time>2023-05-18T12:18:15Z</time>
      </trkpt>
      <trkpt lat="45.38131" lon="4.58457">
        <ele>1385</ele>
        <time>2023-05-18T12:18:20Z</time>
      </trkpt>
      <trkpt lat="45.38147" lon="4.58449">
        <ele>1385</ele>
        <time>2023-05-18T12:18:47Z</time>
      </trkpt>
      <trkpt lat="45.38145" lon="4.58457">
        <ele>1385</ele>
        <time>2023-05-18T12:19:01Z</time>
      </trkpt>
      <trkpt lat="45.38146" lon="4.58461">
        <ele>1385</ele>
        <time>2023-05-18T12:19:05Z</time>
      </trkpt>
      <trkpt lat="45.38144" lon="4.58471">
        <ele>1384.8</ele>
        <time>2023-05-18T12:19:28Z</time>
      </trkpt>
      <trkpt lat="45.38149" lon="4.58474">
        <ele>1385</ele>
        <time>2023-05-18T12:19:41Z</time>
      </trkpt>
      <trkpt lat="45.38165" lon="4.58467">
        <ele>1384.8</ele>
        <time>2023-05-18T12:19:57Z</time>
      </trkpt>
      <trkpt lat="45.38173" lon="4.58451">
        <ele>1386</ele>
        <time>2023-05-18T12:20:18Z</time>
      </trkpt>
      <trkpt lat="45.38176" lon="4.58445">
        <ele>1386.6</ele>
        <time>2023-05-18T12:20:31Z</time>
      </trkpt>
      <trkpt lat="45.38184" lon="4.58431">
        <ele>1387.4</ele>
        <time>2023-05-18T12:20:46Z</time>
      </trkpt>
      <trkpt lat="45.38201" lon="4.58412">
        <ele>1390.4</ele>
        <time>2023-05-18T12:21:06Z</time>
      </trkpt>
      <trkpt lat="45.3821" lon="4.58391">
        <ele>1393.2</ele>
        <time>2023-05-18T12:21:27Z</time>
      </trkpt>
      <trkpt lat="45.38208" lon="4.58383">
        <ele>1394.8</ele>
        <time>2023-05-18T12:21:40Z</time>
      </trkpt>
      <trkpt lat="45.38215" lon="4.5836">
        <ele>1397.2</ele>
        <time>2023-05-18T12:22:01Z</time>
      </trkpt>
      <trkpt lat="45.38225" lon="4.58348">
        <ele>1398.6</ele>
        <time>2023-05-18T12:22:15Z</time>
      </trkpt>
      <trkpt lat="45.38237" lon="4.58321">
        <ele>1401</ele>
        <time>2023-05-18T12:22:37Z</time>
      </trkpt>
      <trkpt lat="45.38249" lon="4.58299">
        <ele>1403</ele>
        <time>2023-05-18T12:22:59Z</time>
      </trkpt>
      <trkpt lat="45.38259" lon="4.58276">
        <ele>1406</ele>
        <time>2023-05-18T12:23:23Z</time>
      </trkpt>
      <trkpt lat="45.38265" lon="4.58241">
        <ele>1407.8</ele>
        <time>2023-05-18T12:23:48Z</time>
      </trkpt>
      <trkpt lat="45.38265" lon="4.58229">
        <ele>1409.4</ele>
        <time>2023-05-18T12:24:01Z</time>
      </trkpt>
      <trkpt lat="45.38271" lon="4.58197">
        <ele>1411.8</ele>
        <time>2023-05-18T12:24:25Z</time>
      </trkpt>
      <trkpt lat="45.3827" lon="4.58193">
        <ele>1412.8</ele>
        <time>2023-05-18T12:24:32Z</time>
      </trkpt>
      <trkpt lat="45.38276" lon="4.5818">
        <ele>1414.8</ele>
        <time>2023-05-18T12:24:48Z</time>
      </trkpt>
      <trkpt lat="45.38276" lon="4.58176">
        <ele>1415.2</ele>
        <time>2023-05-18T12:24:53Z</time>
      </trkpt>
      <trkpt lat="45.38272" lon="4.58167">
        <ele>1416</ele>
        <time>2023-05-18T12:25:00Z</time>
      </trkpt>
      <trkpt lat="45.38265" lon="4.58151">
        <ele>1417.6</ele>
        <time>2023-05-18T12:25:15Z</time>
      </trkpt>
      <trkpt lat="45.38268" lon="4.58128">
        <ele>1419.2</ele>
        <time>2023-05-18T12:25:34Z</time>
      </trkpt>
      <trkpt lat="45.38271" lon="4.58118">
        <ele>1419.2</ele>
        <time>2023-05-18T12:25:37Z</time>
      </trkpt>
      <trkpt lat="45.38271" lon="4.58096">
        <ele>1420.8</ele>
        <time>2023-05-18T12:26:02Z</time>
      </trkpt>
      <trkpt lat="45.3828" lon="4.58068">
        <ele>1422.2</ele>
        <time>2023-05-18T12:26:24Z</time>
      </trkpt>
      <trkpt lat="45.38277" lon="4.58049">
        <ele>1422.2</ele>
        <time>2023-05-18T12:26:39Z</time>
      </trkpt>
      <trkpt lat="45.38269" lon="4.58024">
        <ele>1423.4</ele>
        <time>2023-05-18T12:26:56Z</time>
      </trkpt>
      <trkpt lat="45.38266" lon="4.58032">
        <ele>1424.6</ele>
        <time>2023-05-18T12:27:18Z</time>
      </trkpt>
      <trkpt lat="45.38264" lon="4.58031">
        <ele>1424.8</ele>
        <time>2023-05-18T12:27:30Z</time>
      </trkpt>
      <trkpt lat="45.38268" lon="4.58021">
        <ele>1424.8</ele>
        <time>2023-05-18T12:28:11Z</time>
      </trkpt>
      <trkpt lat="45.38258" lon="4.5802">
        <ele>1425.2</ele>
        <time>2023-05-18T12:28:31Z</time>
      </trkpt>
      <trkpt lat="45.38255" lon="4.58018">
        <ele>1425.2</ele>
        <time>2023-05-18T12:28:35Z</time>
      </trkpt>
      <trkpt lat="45.38249" lon="4.58029">
        <ele>1425.2</ele>
        <time>2023-05-18T12:28:50Z</time>
      </trkpt>
      <trkpt lat="45.38242" lon="4.58019">
        <ele>1425.4</ele>
        <time>2023-05-18T12:29:19Z</time>
      </trkpt>
      <trkpt lat="45.38242" lon="4.58025">
        <ele>1425.4</ele>
        <time>2023-05-18T12:29:31Z</time>
      </trkpt>
      <trkpt lat="45.38243" lon="4.58033">
        <ele>1425.6</ele>
        <time>2023-05-18T12:30:07Z</time>
      </trkpt>
      <trkpt lat="45.38239" lon="4.58026">
        <ele>1425.6</ele>
        <time>2023-05-18T12:30:40Z</time>
      </trkpt>
      <trkpt lat="45.38232" lon="4.58033">
        <ele>1425.8</ele>
        <time>2023-05-18T12:31:02Z</time>
      </trkpt>
      <trkpt lat="45.38214" lon="4.58035">
        <ele>1428.6</ele>
        <time>2023-05-18T12:31:26Z</time>
      </trkpt>
      <trkpt lat="45.38208" lon="4.58051">
        <ele>1430.6</ele>
        <time>2023-05-18T12:31:50Z</time>
      </trkpt>
      <trkpt lat="45.38195" lon="4.58056">
        <ele>1431</ele>
        <time>2023-05-18T12:32:08Z</time>
      </trkpt>
      <trkpt lat="45.38182" lon="4.58067">
        <ele>1432.2</ele>
        <time>2023-05-18T12:32:34Z</time>
      </trkpt>
      <trkpt lat="45.38173" lon="4.58068">
        <ele>1432.8</ele>
        <time>2023-05-18T12:32:54Z</time>
      </trkpt>
      <trkpt lat="45.38165" lon="4.58071">
        <ele>1432.2</ele>
        <time>2023-05-18T12:33:15Z</time>
      </trkpt>
      <trkpt lat="45.38163" lon="4.58072">
        <ele>1432</ele>
        <time>2023-05-18T12:33:19Z</time>
      </trkpt>
      <trkpt lat="45.38149" lon="4.58077">
        <ele>1430.8</ele>
        <time>2023-05-18T12:33:35Z</time>
      </trkpt>
      <trkpt lat="45.38146" lon="4.58075">
        <ele>1430.8</ele>
        <time>2023-05-18T12:33:38Z</time>
      </trkpt>
      <trkpt lat="45.38123" lon="4.58074">
        <ele>1429.6</ele>
        <time>2023-05-18T12:33:59Z</time>
      </trkpt>
      <trkpt lat="45.38113" lon="4.58076">
        <ele>1429.4</ele>
        <time>2023-05-18T12:34:09Z</time>
      </trkpt>
      <trkpt lat="45.38106" lon="4.5808">
        <ele>1429.4</ele>
        <time>2023-05-18T12:34:15Z</time>
      </trkpt>
      <trkpt lat="45.38092" lon="4.58084">
        <ele>1429.4</ele>
        <time>2023-05-18T12:34:31Z</time>
      </trkpt>
      <trkpt lat="45.38082" lon="4.58088">
        <ele>1430.2</ele>
        <time>2023-05-18T12:34:45Z</time>
      </trkpt>
      <trkpt lat="45.38078" lon="4.58091">
        <ele>1430.4</ele>
        <time>2023-05-18T12:34:50Z</time>
      </trkpt>
      <trkpt lat="45.38071" lon="4.58089">
        <ele>1430.4</ele>
        <time>2023-05-18T12:34:56Z</time>
      </trkpt>
      <trkpt lat="45.38064" lon="4.58094">
        <ele>1430</ele>
        <time>2023-05-18T12:35:02Z</time>
      </trkpt>
      <trkpt lat="45.38062" lon="4.58095">
        <ele>1430</ele>
        <time>2023-05-18T12:35:04Z</time>
      </trkpt>
      <trkpt lat="45.38052" lon="4.58097">
        <ele>1429.6</ele>
        <time>2023-05-18T12:35:17Z</time>
      </trkpt>
      <trkpt lat="45.38046" lon="4.58096">
        <ele>1429.4</ele>
        <time>2023-05-18T12:35:24Z</time>
      </trkpt>
      <trkpt lat="45.38041" lon="4.58096">
        <ele>1429.2</ele>
        <time>2023-05-18T12:35:28Z</time>
      </trkpt>
      <trkpt lat="45.38029" lon="4.58106">
        <ele>1429.4</ele>
        <time>2023-05-18T12:35:41Z</time>
      </trkpt>
      <trkpt lat="45.38018" lon="4.58112">
        <ele>1428.8</ele>
        <time>2023-05-18T12:35:55Z</time>
      </trkpt>
      <trkpt lat="45.38012" lon="4.58114">
        <ele>1428.4</ele>
        <time>2023-05-18T12:36:01Z</time>
      </trkpt>
      <trkpt lat="45.38001" lon="4.58122">
        <ele>1428</ele>
        <time>2023-05-18T12:36:13Z</time>
      </trkpt>
      <trkpt lat="45.37988" lon="4.5813">
        <ele>1428</ele>
        <time>2023-05-18T12:36:27Z</time>
      </trkpt>
      <trkpt lat="45.37978" lon="4.58136">
        <ele>1428.6</ele>
        <time>2023-05-18T12:36:40Z</time>
      </trkpt>
      <trkpt lat="45.37975" lon="4.58135">
        <ele>1429.2</ele>
        <time>2023-05-18T12:37:08Z</time>
      </trkpt>
      <trkpt lat="45.37959" lon="4.5814">
        <ele>1429.4</ele>
        <time>2023-05-18T12:37:23Z</time>
      </trkpt>
      <trkpt lat="45.37951" lon="4.58137">
        <ele>1430</ele>
        <time>2023-05-18T12:37:35Z</time>
      </trkpt>
      <trkpt lat="45.37949" lon="4.58142">
        <ele>1431</ele>
        <time>2023-05-18T12:37:50Z</time>
      </trkpt>
      <trkpt lat="45.37948" lon="4.58143">
        <ele>1431</ele>
        <time>2023-05-18T12:37:59Z</time>
      </trkpt>
      <trkpt lat="45.37942" lon="4.58136">
        <ele>1430.8</ele>
        <time>2023-05-18T12:38:10Z</time>
      </trkpt>
      <trkpt lat="45.37939" lon="4.58134">
        <ele>1430.8</ele>
        <time>2023-05-18T12:38:15Z</time>
      </trkpt>
      <trkpt lat="45.37936" lon="4.58131">
        <ele>1430.4</ele>
        <time>2023-05-18T12:38:39Z</time>
      </trkpt>
      <trkpt lat="45.37928" lon="4.58132">
        <ele>1430.2</ele>
        <time>2023-05-18T12:38:59Z</time>
      </trkpt>
      <trkpt lat="45.37921" lon="4.58131">
        <ele>1429</ele>
        <time>2023-05-18T12:39:26Z</time>
      </trkpt>
      <trkpt lat="45.37918" lon="4.58131">
        <ele>1426.8</ele>
        <time>2023-05-18T12:39:45Z</time>
      </trkpt>
      <trkpt lat="45.37918" lon="4.58134">
        <ele>1426.4</ele>
        <time>2023-05-18T12:40:23Z</time>
      </trkpt>
      <trkpt lat="45.37919" lon="4.58134">
        <ele>1426</ele>
        <time>2023-05-18T12:41:17Z</time>
      </trkpt>
      <trkpt lat="45.37915" lon="4.58134">
        <ele>1426.4</ele>
        <time>2023-05-18T12:42:01Z</time>
      </trkpt>
      <trkpt lat="45.37921" lon="4.58135">
        <ele>1426.8</ele>
        <time>2023-05-18T12:42:25Z</time>
      </trkpt>
      <trkpt lat="45.37926" lon="4.5814">
        <ele>1429.8</ele>
        <time>2023-05-18T12:42:39Z</time>
      </trkpt>
      <trkpt lat="45.3793" lon="4.58137">
        <ele>1430</ele>
        <time>2023-05-18T12:42:56Z</time>
      </trkpt>
      <trkpt lat="45.37937" lon="4.58137">
        <ele>1429.8</ele>
        <time>2023-05-18T12:43:08Z</time>
      </trkpt>
      <trkpt lat="45.37949" lon="4.58137">
        <ele>1431.2</ele>
        <time>2023-05-18T12:43:27Z</time>
      </trkpt>
      <trkpt lat="45.3795" lon="4.58135">
        <ele>1431.2</ele>
        <time>2023-05-18T12:43:34Z</time>
      </trkpt>
      <trkpt lat="45.37953" lon="4.58135">
        <ele>1430.8</ele>
        <time>2023-05-18T12:43:37Z</time>
      </trkpt>
      <trkpt lat="45.37954" lon="4.58138">
        <ele>1430.8</ele>
        <time>2023-05-18T12:43:39Z</time>
      </trkpt>
      <trkpt lat="45.37961" lon="4.58139">
        <ele>1430.8</ele>
        <time>2023-05-18T12:43:48Z</time>
      </trkpt>
      <trkpt lat="45.3797" lon="4.58135">
        <ele>1430.2</ele>
        <time>2023-05-18T12:44:00Z</time>
      </trkpt>
      <trkpt lat="45.37971" lon="4.58138">
        <ele>1429.8</ele>
        <time>2023-05-18T12:44:09Z</time>
      </trkpt>
      <trkpt lat="45.37979" lon="4.58137">
        <ele>1429.8</ele>
        <time>2023-05-18T12:44:14Z</time>
      </trkpt>
      <trkpt lat="45.37983" lon="4.58133">
        <ele>1429</ele>
        <time>2023-05-18T12:44:27Z</time>
      </trkpt>
      <trkpt lat="45.37984" lon="4.58136">
        <ele>1429.2</ele>
        <time>2023-05-18T12:44:43Z</time>
      </trkpt>
      <trkpt lat="45.3798" lon="4.58128">
        <ele>1429.4</ele>
        <time>2023-05-18T12:44:49Z</time>
      </trkpt>
      <trkpt lat="45.37979" lon="4.58123">
        <ele>1429.6</ele>
        <time>2023-05-18T12:44:55Z</time>
      </trkpt>
      <trkpt lat="45.37982" lon="4.58121">
        <ele>1429.6</ele>
        <time>2023-05-18T12:45:10Z</time>
      </trkpt>
      <trkpt lat="45.37981" lon="4.5811">
        <ele>1429.4</ele>
        <time>2023-05-18T12:45:19Z</time>
      </trkpt>
      <trkpt lat="45.37984" lon="4.58092">
        <ele>1428.2</ele>
        <time>2023-05-18T12:45:33Z</time>
      </trkpt>
      <trkpt lat="45.37986" lon="4.58085">
        <ele>1427.2</ele>
        <time>2023-05-18T12:45:39Z</time>
      </trkpt>
      <trkpt lat="45.37981" lon="4.58077">
        <ele>1424.6</ele>
        <time>2023-05-18T12:45:53Z</time>
      </trkpt>
      <trkpt lat="45.37976" lon="4.58067">
        <ele>1423.4</ele>
        <time>2023-05-18T12:46:00Z</time>
      </trkpt>
      <trkpt lat="45.37975" lon="4.58053">
        <ele>1420.6</ele>
        <time>2023-05-18T12:46:14Z</time>
      </trkpt>
      <trkpt lat="45.37971" lon="4.58051">
        <ele>1419.2</ele>
        <time>2023-05-18T12:46:29Z</time>
      </trkpt>
      <trkpt lat="45.37967" lon="4.5804">
        <ele>1418.4</ele>
        <time>2023-05-18T12:46:35Z</time>
      </trkpt>
      <trkpt lat="45.37967" lon="4.58027">
        <ele>1415.2</ele>
        <time>2023-05-18T12:46:48Z</time>
      </trkpt>
      <trkpt lat="45.37972" lon="4.58008">
        <ele>1412</ele>
        <time>2023-05-18T12:47:05Z</time>
      </trkpt>
      <trkpt lat="45.37973" lon="4.58006">
        <ele>1411.8</ele>
        <time>2023-05-18T12:47:06Z</time>
      </trkpt>
      <trkpt lat="45.37975" lon="4.58007">
        <ele>1411.6</ele>
        <time>2023-05-18T12:47:07Z</time>
      </trkpt>
      <trkpt lat="45.37976" lon="4.58008">
        <ele>1411.4</ele>
        <time>2023-05-18T12:47:08Z</time>
      </trkpt>
      <trkpt lat="45.37977" lon="4.58007">
        <ele>1411.2</ele>
        <time>2023-05-18T12:47:09Z</time>
      </trkpt>
      <trkpt lat="45.37979" lon="4.58008">
        <ele>1411</ele>
        <time>2023-05-18T12:47:10Z</time>
      </trkpt>
      <trkpt lat="45.3798" lon="4.58008">
        <ele>1411</ele>
        <time>2023-05-18T12:47:11Z</time>
      </trkpt>
      <trkpt lat="45.37988" lon="4.5801">
        <ele>1408.8</ele>
        <time>2023-05-18T12:47:25Z</time>
      </trkpt>
      <trkpt lat="45.38004" lon="4.58015">
        <ele>1408.8</ele>
        <time>2023-05-18T12:47:42Z</time>
      </trkpt>
      <trkpt lat="45.37997" lon="4.57985">
        <ele>1406.4</ele>
        <time>2023-05-18T12:48:09Z</time>
      </trkpt>
      <trkpt lat="45.37991" lon="4.57964">
        <ele>1403.2</ele>
        <time>2023-05-18T12:48:28Z</time>
      </trkpt>
      <trkpt lat="45.37982" lon="4.57944">
        <ele>1400.2</ele>
        <time>2023-05-18T12:48:45Z</time>
      </trkpt>
      <trkpt lat="45.37988" lon="4.57929">
        <ele>1398.8</ele>
        <time>2023-05-18T12:48:57Z</time>
      </trkpt>
      <trkpt lat="45.37993" lon="4.57888">
        <ele>1396</ele>
        <time>2023-05-18T12:49:20Z</time>
      </trkpt>
      <trkpt lat="45.37994" lon="4.57884">
        <ele>1395.8</ele>
        <time>2023-05-18T12:49:23Z</time>
      </trkpt>
      <trkpt lat="45.37994" lon="4.57883">
        <ele>1395.6</ele>
        <time>2023-05-18T12:49:24Z</time>
      </trkpt>
      <trkpt lat="45.37994" lon="4.57881">
        <ele>1395.4</ele>
        <time>2023-05-18T12:49:25Z</time>
      </trkpt>
      <trkpt lat="45.37997" lon="4.5787">
        <ele>1394.2</ele>
        <time>2023-05-18T12:49:33Z</time>
      </trkpt>
      <trkpt lat="45.37998" lon="4.57867">
        <ele>1394</ele>
        <time>2023-05-18T12:49:34Z</time>
      </trkpt>
      <trkpt lat="45.38006" lon="4.57833">
        <ele>1392.2</ele>
        <time>2023-05-18T12:49:48Z</time>
      </trkpt>
      <trkpt lat="45.38005" lon="4.57824">
        <ele>1390.8</ele>
        <time>2023-05-18T12:49:53Z</time>
      </trkpt>
      <trkpt lat="45.38006" lon="4.57804">
        <ele>1389.2</ele>
        <time>2023-05-18T12:50:08Z</time>
      </trkpt>
      <trkpt lat="45.3801" lon="4.57796">
        <ele>1386</ele>
        <time>2023-05-18T12:50:23Z</time>
      </trkpt>
      <trkpt lat="45.38013" lon="4.57795">
        <ele>1385.6</ele>
        <time>2023-05-18T12:50:33Z</time>
      </trkpt>
      <trkpt lat="45.38032" lon="4.57785">
        <ele>1388.6</ele>
        <time>2023-05-18T12:50:54Z</time>
      </trkpt>
      <trkpt lat="45.38053" lon="4.57779">
        <ele>1389.8</ele>
        <time>2023-05-18T12:51:12Z</time>
      </trkpt>
      <trkpt lat="45.38067" lon="4.57782">
        <ele>1393</ele>
        <time>2023-05-18T12:51:30Z</time>
      </trkpt>
      <trkpt lat="45.38088" lon="4.57776">
        <ele>1395.2</ele>
        <time>2023-05-18T12:51:51Z</time>
      </trkpt>
      <trkpt lat="45.38106" lon="4.57765">
        <ele>1396.6</ele>
        <time>2023-05-18T12:51:58Z</time>
      </trkpt>
      <trkpt lat="45.38111" lon="4.57758">
        <ele>1397</ele>
        <time>2023-05-18T12:52:01Z</time>
      </trkpt>
      <trkpt lat="45.3811" lon="4.57757">
        <ele>1397</ele>
        <time>2023-05-18T12:52:02Z</time>
      </trkpt>
      <trkpt lat="45.3811" lon="4.57757">
        <ele>1397</ele>
        <time>2023-05-18T12:52:03Z</time>
      </trkpt>
      <trkpt lat="45.3811" lon="4.57756">
        <ele>1397.2</ele>
        <time>2023-05-18T12:52:04Z</time>
      </trkpt>
      <trkpt lat="45.3811" lon="4.57753">
        <ele>1397.2</ele>
        <time>2023-05-18T12:52:06Z</time>
      </trkpt>
      <trkpt lat="45.38111" lon="4.57752">
        <ele>1397.2</ele>
        <time>2023-05-18T12:52:07Z</time>
      </trkpt>
      <trkpt lat="45.38111" lon="4.57751">
        <ele>1397.2</ele>
        <time>2023-05-18T12:52:08Z</time>
      </trkpt>
      <trkpt lat="45.38111" lon="4.5775">
        <ele>1397.2</ele>
        <time>2023-05-18T12:52:09Z</time>
      </trkpt>
      <trkpt lat="45.38112" lon="4.57749">
        <ele>1397.2</ele>
        <time>2023-05-18T12:52:10Z</time>
      </trkpt>
      <trkpt lat="45.38112" lon="4.57748">
        <ele>1397.2</ele>
        <time>2023-05-18T12:52:11Z</time>
      </trkpt>
      <trkpt lat="45.38112" lon="4.57746">
        <ele>1397</ele>
        <time>2023-05-18T12:52:12Z</time>
      </trkpt>
      <trkpt lat="45.38112" lon="4.57745">
        <ele>1397</ele>
        <time>2023-05-18T12:52:13Z</time>
      </trkpt>
      <trkpt lat="45.38112" lon="4.57744">
        <ele>1397</ele>
        <time>2023-05-18T12:52:14Z</time>
      </trkpt>
      <trkpt lat="45.38112" lon="4.57742">
        <ele>1396.8</ele>
        <time>2023-05-18T12:52:15Z</time>
      </trkpt>
      <trkpt lat="45.38118" lon="4.57737">
        <ele>1395.2</ele>
        <time>2023-05-18T12:52:29Z</time>
      </trkpt>
      <trkpt lat="45.38154" lon="4.57731">
        <ele>1394.6</ele>
        <time>2023-05-18T12:52:51Z</time>
      </trkpt>
      <trkpt lat="45.38156" lon="4.57732">
        <ele>1394.6</ele>
        <time>2023-05-18T12:52:52Z</time>
      </trkpt>
      <trkpt lat="45.38158" lon="4.57733">
        <ele>1394.4</ele>
        <time>2023-05-18T12:52:53Z</time>
      </trkpt>
      <trkpt lat="45.38169" lon="4.57729">
        <ele>1395</ele>
        <time>2023-05-18T12:53:10Z</time>
      </trkpt>
      <trkpt lat="45.38173" lon="4.57725">
        <ele>1395.4</ele>
        <time>2023-05-18T12:53:14Z</time>
      </trkpt>
      <trkpt lat="45.38173" lon="4.57724">
        <ele>1395.4</ele>
        <time>2023-05-18T12:53:15Z</time>
      </trkpt>
      <trkpt lat="45.38185" lon="4.57721">
        <ele>1396</ele>
        <time>2023-05-18T12:53:26Z</time>
      </trkpt>
      <trkpt lat="45.382" lon="4.57716">
        <ele>1396.4</ele>
        <time>2023-05-18T12:53:39Z</time>
      </trkpt>
      <trkpt lat="45.38206" lon="4.57714">
        <ele>1396.6</ele>
        <time>2023-05-18T12:53:43Z</time>
      </trkpt>
      <trkpt lat="45.38223" lon="4.57692">
        <ele>1397.6</ele>
        <time>2023-05-18T12:54:01Z</time>
      </trkpt>
      <trkpt lat="45.38232" lon="4.57677">
        <ele>1397.8</ele>
        <time>2023-05-18T12:54:14Z</time>
      </trkpt>
      <trkpt lat="45.38241" lon="4.57657">
        <ele>1398.2</ele>
        <time>2023-05-18T12:54:27Z</time>
      </trkpt>
      <trkpt lat="45.38242" lon="4.57656">
        <ele>1398.4</ele>
        <time>2023-05-18T12:54:28Z</time>
      </trkpt>
      <trkpt lat="45.38244" lon="4.57655">
        <ele>1398.4</ele>
        <time>2023-05-18T12:54:29Z</time>
      </trkpt>
      <trkpt lat="45.38245" lon="4.57654">
        <ele>1398.6</ele>
        <time>2023-05-18T12:54:30Z</time>
      </trkpt>
      <trkpt lat="45.38247" lon="4.57653">
        <ele>1398.6</ele>
        <time>2023-05-18T12:54:31Z</time>
      </trkpt>
      <trkpt lat="45.38248" lon="4.57653">
        <ele>1398.6</ele>
        <time>2023-05-18T12:54:32Z</time>
      </trkpt>
      <trkpt lat="45.38248" lon="4.57651">
        <ele>1398.8</ele>
        <time>2023-05-18T12:54:33Z</time>
      </trkpt>
      <trkpt lat="45.38249" lon="4.5765">
        <ele>1398.8</ele>
        <time>2023-05-18T12:54:34Z</time>
      </trkpt>
      <trkpt lat="45.38249" lon="4.57648">
        <ele>1398.8</ele>
        <time>2023-05-18T12:54:35Z</time>
      </trkpt>
      <trkpt lat="45.3825" lon="4.57646">
        <ele>1398.8</ele>
        <time>2023-05-18T12:54:36Z</time>
      </trkpt>
      <trkpt lat="45.3825" lon="4.57644">
        <ele>1398.8</ele>
        <time>2023-05-18T12:54:37Z</time>
      </trkpt>
      <trkpt lat="45.38251" lon="4.57642">
        <ele>1398.8</ele>
        <time>2023-05-18T12:54:38Z</time>
      </trkpt>
      <trkpt lat="45.38251" lon="4.57641">
        <ele>1399</ele>
        <time>2023-05-18T12:54:39Z</time>
      </trkpt>
      <trkpt lat="45.3825" lon="4.57639">
        <ele>1399</ele>
        <time>2023-05-18T12:54:40Z</time>
      </trkpt>
      <trkpt lat="45.3825" lon="4.57637">
        <ele>1399.2</ele>
        <time>2023-05-18T12:54:41Z</time>
      </trkpt>
      <trkpt lat="45.38251" lon="4.57635">
        <ele>1399.2</ele>
        <time>2023-05-18T12:54:43Z</time>
      </trkpt>
      <trkpt lat="45.38252" lon="4.57634">
        <ele>1399.4</ele>
        <time>2023-05-18T12:54:44Z</time>
      </trkpt>
      <trkpt lat="45.38253" lon="4.57633">
        <ele>1399.4</ele>
        <time>2023-05-18T12:54:45Z</time>
      </trkpt>
      <trkpt lat="45.38263" lon="4.57635">
        <ele>1400.2</ele>
        <time>2023-05-18T12:55:00Z</time>
      </trkpt>
      <trkpt lat="45.38264" lon="4.57636">
        <ele>1400.2</ele>
        <time>2023-05-18T12:55:01Z</time>
      </trkpt>
      <trkpt lat="45.38265" lon="4.57636">
        <ele>1400.4</ele>
        <time>2023-05-18T12:55:02Z</time>
      </trkpt>
      <trkpt lat="45.38274" lon="4.57636">
        <ele>1401</ele>
        <time>2023-05-18T12:55:15Z</time>
      </trkpt>
      <trkpt lat="45.3829" lon="4.57636">
        <ele>1402</ele>
        <time>2023-05-18T12:55:32Z</time>
      </trkpt>
      <trkpt lat="45.38306" lon="4.57632">
        <ele>1402.2</ele>
        <time>2023-05-18T12:55:47Z</time>
      </trkpt>
      <trkpt lat="45.38322" lon="4.57628">
        <ele>1402</ele>
        <time>2023-05-18T12:56:01Z</time>
      </trkpt>
      <trkpt lat="45.38343" lon="4.57624">
        <ele>1401</ele>
        <time>2023-05-18T12:56:17Z</time>
      </trkpt>
      <trkpt lat="45.3836" lon="4.57623">
        <ele>1400.6</ele>
        <time>2023-05-18T12:56:28Z</time>
      </trkpt>
      <trkpt lat="45.38361" lon="4.57624">
        <ele>1400.4</ele>
        <time>2023-05-18T12:56:29Z</time>
      </trkpt>
      <trkpt lat="45.38363" lon="4.57624">
        <ele>1400.4</ele>
        <time>2023-05-18T12:56:30Z</time>
      </trkpt>
      <trkpt lat="45.38364" lon="4.57624">
        <ele>1400.4</ele>
        <time>2023-05-18T12:56:31Z</time>
      </trkpt>
      <trkpt lat="45.38365" lon="4.57624">
        <ele>1400.2</ele>
        <time>2023-05-18T12:56:32Z</time>
      </trkpt>
      <trkpt lat="45.38366" lon="4.57624">
        <ele>1400.2</ele>
        <time>2023-05-18T12:56:33Z</time>
      </trkpt>
      <trkpt lat="45.38367" lon="4.57624">
        <ele>1400.2</ele>
        <time>2023-05-18T12:56:34Z</time>
      </trkpt>
      <trkpt lat="45.38368" lon="4.57623">
        <ele>1400.2</ele>
        <time>2023-05-18T12:56:35Z</time>
      </trkpt>
      <trkpt lat="45.3837" lon="4.57623">
        <ele>1400.2</ele>
        <time>2023-05-18T12:56:36Z</time>
      </trkpt>
      <trkpt lat="45.38371" lon="4.57622">
        <ele>1400.2</ele>
        <time>2023-05-18T12:56:37Z</time>
      </trkpt>
      <trkpt lat="45.38372" lon="4.57622">
        <ele>1400</ele>
        <time>2023-05-18T12:56:38Z</time>
      </trkpt>
      <trkpt lat="45.38373" lon="4.57622">
        <ele>1400</ele>
        <time>2023-05-18T12:56:39Z</time>
      </trkpt>
      <trkpt lat="45.38392" lon="4.57617">
        <ele>1397.8</ele>
        <time>2023-05-18T12:56:55Z</time>
      </trkpt>
      <trkpt lat="45.38409" lon="4.5761">
        <ele>1396</ele>
        <time>2023-05-18T12:57:10Z</time>
      </trkpt>
      <trkpt lat="45.38423" lon="4.57607">
        <ele>1393.8</ele>
        <time>2023-05-18T12:57:24Z</time>
      </trkpt>
      <trkpt lat="45.38421" lon="4.57604">
        <ele>1393.6</ele>
        <time>2023-05-18T12:57:29Z</time>
      </trkpt>
      <trkpt lat="45.38421" lon="4.576">
        <ele>1393.4</ele>
        <time>2023-05-18T12:57:35Z</time>
      </trkpt>
      <trkpt lat="45.3842" lon="4.57598">
        <ele>1393.4</ele>
        <time>2023-05-18T12:57:36Z</time>
      </trkpt>
      <trkpt lat="45.3842" lon="4.57596">
        <ele>1393.4</ele>
        <time>2023-05-18T12:57:37Z</time>
      </trkpt>
      <trkpt lat="45.38421" lon="4.57594">
        <ele>1393.2</ele>
        <time>2023-05-18T12:57:38Z</time>
      </trkpt>
      <trkpt lat="45.38421" lon="4.57593">
        <ele>1393.2</ele>
        <time>2023-05-18T12:57:39Z</time>
      </trkpt>
      <trkpt lat="45.38421" lon="4.57591">
        <ele>1393.2</ele>
        <time>2023-05-18T12:57:40Z</time>
      </trkpt>
      <trkpt lat="45.38422" lon="4.57587">
        <ele>1393</ele>
        <time>2023-05-18T12:57:43Z</time>
      </trkpt>
      <trkpt lat="45.38422" lon="4.57585">
        <ele>1393</ele>
        <time>2023-05-18T12:57:44Z</time>
      </trkpt>
      <trkpt lat="45.38423" lon="4.57583">
        <ele>1393</ele>
        <time>2023-05-18T12:57:45Z</time>
      </trkpt>
      <trkpt lat="45.38422" lon="4.57581">
        <ele>1393</ele>
        <time>2023-05-18T12:57:46Z</time>
      </trkpt>
      <trkpt lat="45.38422" lon="4.57579">
        <ele>1393</ele>
        <time>2023-05-18T12:57:47Z</time>
      </trkpt>
      <trkpt lat="45.38422" lon="4.57577">
        <ele>1393</ele>
        <time>2023-05-18T12:57:48Z</time>
      </trkpt>
      <trkpt lat="45.38422" lon="4.57576">
        <ele>1393</ele>
        <time>2023-05-18T12:57:49Z</time>
      </trkpt>
      <trkpt lat="45.38422" lon="4.57547">
        <ele>1392.8</ele>
        <time>2023-05-18T12:58:05Z</time>
      </trkpt>
      <trkpt lat="45.38424" lon="4.57539">
        <ele>1392.6</ele>
        <time>2023-05-18T12:58:12Z</time>
      </trkpt>
      <trkpt lat="45.38424" lon="4.57538">
        <ele>1392.6</ele>
        <time>2023-05-18T12:58:13Z</time>
      </trkpt>
      <trkpt lat="45.38425" lon="4.57536">
        <ele>1392.6</ele>
        <time>2023-05-18T12:58:14Z</time>
      </trkpt>
      <trkpt lat="45.38425" lon="4.57535">
        <ele>1392.6</ele>
        <time>2023-05-18T12:58:15Z</time>
      </trkpt>
      <trkpt lat="45.38425" lon="4.57533">
        <ele>1392.6</ele>
        <time>2023-05-18T12:58:16Z</time>
      </trkpt>
      <trkpt lat="45.38426" lon="4.57532">
        <ele>1392.6</ele>
        <time>2023-05-18T12:58:17Z</time>
      </trkpt>
      <trkpt lat="45.38426" lon="4.5753">
        <ele>1392.6</ele>
        <time>2023-05-18T12:58:18Z</time>
      </trkpt>
      <trkpt lat="45.38426" lon="4.57528">
        <ele>1392.6</ele>
        <time>2023-05-18T12:58:19Z</time>
      </trkpt>
      <trkpt lat="45.38426" lon="4.57523">
        <ele>1393</ele>
        <time>2023-05-18T12:58:34Z</time>
      </trkpt>
      <trkpt lat="45.38426" lon="4.57511">
        <ele>1392.8</ele>
        <time>2023-05-18T12:58:47Z</time>
      </trkpt>
      <trkpt lat="45.3843" lon="4.57486">
        <ele>1392.8</ele>
        <time>2023-05-18T12:59:01Z</time>
      </trkpt>
      <trkpt lat="45.38434" lon="4.57476">
        <ele>1392.8</ele>
        <time>2023-05-18T12:59:08Z</time>
      </trkpt>
      <trkpt lat="45.38434" lon="4.57474">
        <ele>1392.8</ele>
        <time>2023-05-18T12:59:09Z</time>
      </trkpt>
      <trkpt lat="45.38434" lon="4.57472">
        <ele>1392.8</ele>
        <time>2023-05-18T12:59:10Z</time>
      </trkpt>
      <trkpt lat="45.38434" lon="4.5747">
        <ele>1393</ele>
        <time>2023-05-18T12:59:11Z</time>
      </trkpt>
      <trkpt lat="45.38434" lon="4.57469">
        <ele>1393</ele>
        <time>2023-05-18T12:59:12Z</time>
      </trkpt>
      <trkpt lat="45.38434" lon="4.57467">
        <ele>1393</ele>
        <time>2023-05-18T12:59:13Z</time>
      </trkpt>
      <trkpt lat="45.38435" lon="4.57465">
        <ele>1393</ele>
        <time>2023-05-18T12:59:14Z</time>
      </trkpt>
      <trkpt lat="45.38435" lon="4.57463">
        <ele>1393</ele>
        <time>2023-05-18T12:59:16Z</time>
      </trkpt>
      <trkpt lat="45.38436" lon="4.57461">
        <ele>1393.2</ele>
        <time>2023-05-18T12:59:17Z</time>
      </trkpt>
      <trkpt lat="45.38436" lon="4.57459">
        <ele>1393.2</ele>
        <time>2023-05-18T12:59:18Z</time>
      </trkpt>
      <trkpt lat="45.38441" lon="4.57431">
        <ele>1393.6</ele>
        <time>2023-05-18T12:59:36Z</time>
      </trkpt>
      <trkpt lat="45.38443" lon="4.5741">
        <ele>1393.8</ele>
        <time>2023-05-18T12:59:49Z</time>
      </trkpt>
      <trkpt lat="45.38443" lon="4.57408">
        <ele>1393.8</ele>
        <time>2023-05-18T12:59:50Z</time>
      </trkpt>
      <trkpt lat="45.38443" lon="4.57407">
        <ele>1393.8</ele>
        <time>2023-05-18T12:59:51Z</time>
      </trkpt>
      <trkpt lat="45.38444" lon="4.57406">
        <ele>1393.8</ele>
        <time>2023-05-18T12:59:52Z</time>
      </trkpt>
      <trkpt lat="45.38444" lon="4.57404">
        <ele>1393.8</ele>
        <time>2023-05-18T12:59:53Z</time>
      </trkpt>
      <trkpt lat="45.38445" lon="4.57402">
        <ele>1393.8</ele>
        <time>2023-05-18T12:59:54Z</time>
      </trkpt>
      <trkpt lat="45.38445" lon="4.57401">
        <ele>1393.8</ele>
        <time>2023-05-18T12:59:55Z</time>
      </trkpt>
      <trkpt lat="45.38446" lon="4.57398">
        <ele>1393.6</ele>
        <time>2023-05-18T12:59:56Z</time>
      </trkpt>
      <trkpt lat="45.38447" lon="4.57398">
        <ele>1393.6</ele>
        <time>2023-05-18T12:59:57Z</time>
      </trkpt>
      <trkpt lat="45.38449" lon="4.57368">
        <ele>1393.4</ele>
        <time>2023-05-18T13:00:15Z</time>
      </trkpt>
      <trkpt lat="45.38449" lon="4.5736">
        <ele>1393.6</ele>
        <time>2023-05-18T13:00:20Z</time>
      </trkpt>
      <trkpt lat="45.3845" lon="4.57336">
        <ele>1393.8</ele>
        <time>2023-05-18T13:00:37Z</time>
      </trkpt>
      <trkpt lat="45.38449" lon="4.57323">
        <ele>1394.2</ele>
        <time>2023-05-18T13:01:12Z</time>
      </trkpt>
      <trkpt lat="45.38453" lon="4.57292">
        <ele>1394</ele>
        <time>2023-05-18T13:01:28Z</time>
      </trkpt>
      <trkpt lat="45.38454" lon="4.57268">
        <ele>1394.4</ele>
        <time>2023-05-18T13:01:41Z</time>
      </trkpt>
      <trkpt lat="45.38458" lon="4.57243">
        <ele>1394.2</ele>
        <time>2023-05-18T13:01:57Z</time>
      </trkpt>
      <trkpt lat="45.38456" lon="4.57239">
        <ele>1394.2</ele>
        <time>2023-05-18T13:02:05Z</time>
      </trkpt>
      <trkpt lat="45.38442" lon="4.57238">
        <ele>1395.2</ele>
        <time>2023-05-18T13:02:19Z</time>
      </trkpt>
      <trkpt lat="45.38433" lon="4.57239">
        <ele>1396.8</ele>
        <time>2023-05-18T13:02:29Z</time>
      </trkpt>
      <trkpt lat="45.38431" lon="4.57238">
        <ele>1397</ele>
        <time>2023-05-18T13:02:30Z</time>
      </trkpt>
      <trkpt lat="45.3843" lon="4.57238">
        <ele>1397</ele>
        <time>2023-05-18T13:02:31Z</time>
      </trkpt>
      <trkpt lat="45.38414" lon="4.57239">
        <ele>1399.8</ele>
        <time>2023-05-18T13:02:48Z</time>
      </trkpt>
      <trkpt lat="45.38411" lon="4.57239">
        <ele>1402.2</ele>
        <time>2023-05-18T13:03:05Z</time>
      </trkpt>
      <trkpt lat="45.38396" lon="4.57241">
        <ele>1403.4</ele>
        <time>2023-05-18T13:03:22Z</time>
      </trkpt>
      <trkpt lat="45.38388" lon="4.57237">
        <ele>1404.8</ele>
        <time>2023-05-18T13:03:31Z</time>
      </trkpt>
      <trkpt lat="45.38382" lon="4.57235">
        <ele>1405.8</ele>
        <time>2023-05-18T13:03:38Z</time>
      </trkpt>
      <trkpt lat="45.38374" lon="4.57232">
        <ele>1407</ele>
        <time>2023-05-18T13:03:47Z</time>
      </trkpt>
      <trkpt lat="45.38362" lon="4.57231">
        <ele>1409.8</ele>
        <time>2023-05-18T13:04:01Z</time>
      </trkpt>
      <trkpt lat="45.38351" lon="4.57227">
        <ele>1412.8</ele>
        <time>2023-05-18T13:04:17Z</time>
      </trkpt>
      <trkpt lat="45.38338" lon="4.57226">
        <ele>1414.6</ele>
        <time>2023-05-18T13:04:34Z</time>
      </trkpt>
      <trkpt lat="45.38325" lon="4.57229">
        <ele>1416.4</ele>
        <time>2023-05-18T13:04:49Z</time>
      </trkpt>
      <trkpt lat="45.38324" lon="4.5723">
        <ele>1416.6</ele>
        <time>2023-05-18T13:04:50Z</time>
      </trkpt>
      <trkpt lat="45.38318" lon="4.57233">
        <ele>1419</ele>
        <time>2023-05-18T13:05:05Z</time>
      </trkpt>
      <trkpt lat="45.38306" lon="4.57233">
        <ele>1421.6</ele>
        <time>2023-05-18T13:05:23Z</time>
      </trkpt>
      <trkpt lat="45.38298" lon="4.57237">
        <ele>1424</ele>
        <time>2023-05-18T13:05:39Z</time>
      </trkpt>
      <trkpt lat="45.38293" lon="4.57236">
        <ele>1426</ele>
        <time>2023-05-18T13:05:57Z</time>
      </trkpt>
      <trkpt lat="45.38283" lon="4.57238">
        <ele>1427</ele>
        <time>2023-05-18T13:06:09Z</time>
      </trkpt>
      <trkpt lat="45.38277" lon="4.57239">
        <ele>1428.2</ele>
        <time>2023-05-18T13:06:16Z</time>
      </trkpt>
      <trkpt lat="45.38276" lon="4.57239">
        <ele>1428.2</ele>
        <time>2023-05-18T13:06:17Z</time>
      </trkpt>
      <trkpt lat="45.3827" lon="4.57242">
        <ele>1429.8</ele>
        <time>2023-05-18T13:06:32Z</time>
      </trkpt>
      <trkpt lat="45.38269" lon="4.57243">
        <ele>1430.4</ele>
        <time>2023-05-18T13:07:01Z</time>
      </trkpt>
      <trkpt lat="45.38265" lon="4.57243">
        <ele>1430.2</ele>
        <time>2023-05-18T13:07:38Z</time>
      </trkpt>
      <trkpt lat="45.38262" lon="4.57243">
        <ele>1430.4</ele>
        <time>2023-05-18T13:07:45Z</time>
      </trkpt>
      <trkpt lat="45.38261" lon="4.57242">
        <ele>1430.4</ele>
        <time>2023-05-18T13:07:46Z</time>
      </trkpt>
      <trkpt lat="45.38255" lon="4.5724">
        <ele>1430.4</ele>
        <time>2023-05-18T13:07:56Z</time>
      </trkpt>
      <trkpt lat="45.38246" lon="4.57241">
        <ele>1430.2</ele>
        <time>2023-05-18T13:08:05Z</time>
      </trkpt>
      <trkpt lat="45.38245" lon="4.57241">
        <ele>1430.2</ele>
        <time>2023-05-18T13:08:06Z</time>
      </trkpt>
      <trkpt lat="45.38244" lon="4.5724">
        <ele>1430</ele>
        <time>2023-05-18T13:08:07Z</time>
      </trkpt>
      <trkpt lat="45.38243" lon="4.57239">
        <ele>1430</ele>
        <time>2023-05-18T13:08:08Z</time>
      </trkpt>
      <trkpt lat="45.38243" lon="4.57238">
        <ele>1430</ele>
        <time>2023-05-18T13:08:09Z</time>
      </trkpt>
      <trkpt lat="45.38242" lon="4.57237">
        <ele>1430</ele>
        <time>2023-05-18T13:08:10Z</time>
      </trkpt>
      <trkpt lat="45.38234" lon="4.57217">
        <ele>1428.2</ele>
        <time>2023-05-18T13:08:25Z</time>
      </trkpt>
      <trkpt lat="45.38234" lon="4.57204">
        <ele>1426.4</ele>
        <time>2023-05-18T13:08:34Z</time>
      </trkpt>
      <trkpt lat="45.38232" lon="4.57187">
        <ele>1424</ele>
        <time>2023-05-18T13:08:48Z</time>
      </trkpt>
      <trkpt lat="45.38232" lon="4.57186">
        <ele>1423.8</ele>
        <time>2023-05-18T13:08:49Z</time>
      </trkpt>
      <trkpt lat="45.38231" lon="4.57164">
        <ele>1420.8</ele>
        <time>2023-05-18T13:09:06Z</time>
      </trkpt>
      <trkpt lat="45.38223" lon="4.57142">
        <ele>1418.4</ele>
        <time>2023-05-18T13:09:22Z</time>
      </trkpt>
      <trkpt lat="45.38217" lon="4.57122">
        <ele>1416</ele>
        <time>2023-05-18T13:09:38Z</time>
      </trkpt>
      <trkpt lat="45.3821" lon="4.57104">
        <ele>1414.2</ele>
        <time>2023-05-18T13:09:51Z</time>
      </trkpt>
      <trkpt lat="45.38199" lon="4.57082">
        <ele>1411.8</ele>
        <time>2023-05-18T13:10:08Z</time>
      </trkpt>
      <trkpt lat="45.38186" lon="4.57063">
        <ele>1409.6</ele>
        <time>2023-05-18T13:10:24Z</time>
      </trkpt>
      <trkpt lat="45.38177" lon="4.5705">
        <ele>1408</ele>
        <time>2023-05-18T13:10:38Z</time>
      </trkpt>
      <trkpt lat="45.38164" lon="4.57032">
        <ele>1406</ele>
        <time>2023-05-18T13:10:52Z</time>
      </trkpt>
      <trkpt lat="45.38154" lon="4.57013">
        <ele>1404.4</ele>
        <time>2023-05-18T13:11:07Z</time>
      </trkpt>
      <trkpt lat="45.38143" lon="4.56993">
        <ele>1402</ele>
        <time>2023-05-18T13:11:23Z</time>
      </trkpt>
      <trkpt lat="45.38133" lon="4.56968">
        <ele>1399</ele>
        <time>2023-05-18T13:11:41Z</time>
      </trkpt>
      <trkpt lat="45.3812" lon="4.56948">
        <ele>1397.2</ele>
        <time>2023-05-18T13:11:55Z</time>
      </trkpt>
      <trkpt lat="45.38107" lon="4.5693">
        <ele>1394.6</ele>
        <time>2023-05-18T13:12:12Z</time>
      </trkpt>
      <trkpt lat="45.38098" lon="4.56911">
        <ele>1392.8</ele>
        <time>2023-05-18T13:12:26Z</time>
      </trkpt>
      <trkpt lat="45.38093" lon="4.56894">
        <ele>1391.4</ele>
        <time>2023-05-18T13:12:38Z</time>
      </trkpt>
      <trkpt lat="45.38093" lon="4.56892">
        <ele>1391.2</ele>
        <time>2023-05-18T13:12:39Z</time>
      </trkpt>
      <trkpt lat="45.38087" lon="4.56867">
        <ele>1389</ele>
        <time>2023-05-18T13:12:56Z</time>
      </trkpt>
      <trkpt lat="45.38072" lon="4.56847">
        <ele>1387.4</ele>
        <time>2023-05-18T13:13:11Z</time>
      </trkpt>
      <trkpt lat="45.3806" lon="4.56826">
        <ele>1385.2</ele>
        <time>2023-05-18T13:13:29Z</time>
      </trkpt>
      <trkpt lat="45.38063" lon="4.56827">
        <ele>1384</ele>
        <time>2023-05-18T13:13:41Z</time>
      </trkpt>
      <trkpt lat="45.38061" lon="4.56819">
        <ele>1383.8</ele>
        <time>2023-05-18T13:13:51Z</time>
      </trkpt>
      <trkpt lat="45.38049" lon="4.56797">
        <ele>1382.6</ele>
        <time>2023-05-18T13:14:09Z</time>
      </trkpt>
      <trkpt lat="45.38044" lon="4.56785">
        <ele>1381.8</ele>
        <time>2023-05-18T13:14:19Z</time>
      </trkpt>
      <trkpt lat="45.38037" lon="4.56779">
        <ele>1380.6</ele>
        <time>2023-05-18T13:14:29Z</time>
      </trkpt>
      <trkpt lat="45.3802" lon="4.56763">
        <ele>1379.6</ele>
        <time>2023-05-18T13:14:44Z</time>
      </trkpt>
      <trkpt lat="45.38019" lon="4.56762">
        <ele>1379.4</ele>
        <time>2023-05-18T13:14:46Z</time>
      </trkpt>
      <trkpt lat="45.38017" lon="4.5676">
        <ele>1379.2</ele>
        <time>2023-05-18T13:14:48Z</time>
      </trkpt>
      <trkpt lat="45.38016" lon="4.56759">
        <ele>1379.2</ele>
        <time>2023-05-18T13:14:49Z</time>
      </trkpt>
      <trkpt lat="45.38015" lon="4.56756">
        <ele>1379.2</ele>
        <time>2023-05-18T13:14:50Z</time>
      </trkpt>
      <trkpt lat="45.38014" lon="4.56753">
        <ele>1378.8</ele>
        <time>2023-05-18T13:14:51Z</time>
      </trkpt>
      <trkpt lat="45.38014" lon="4.56752">
        <ele>1378.8</ele>
        <time>2023-05-18T13:14:52Z</time>
      </trkpt>
      <trkpt lat="45.38003" lon="4.56749">
        <ele>1377.4</ele>
        <time>2023-05-18T13:15:05Z</time>
      </trkpt>
      <trkpt lat="45.37999" lon="4.56749">
        <ele>1377</ele>
        <time>2023-05-18T13:15:11Z</time>
      </trkpt>
      <trkpt lat="45.37998" lon="4.56749">
        <ele>1377</ele>
        <time>2023-05-18T13:15:12Z</time>
      </trkpt>
      <trkpt lat="45.37976" lon="4.5675">
        <ele>1376.2</ele>
        <time>2023-05-18T13:15:28Z</time>
      </trkpt>
      <trkpt lat="45.37962" lon="4.56749">
        <ele>1375.2</ele>
        <time>2023-05-18T13:15:41Z</time>
      </trkpt>
      <trkpt lat="45.37958" lon="4.56745">
        <ele>1375</ele>
        <time>2023-05-18T13:15:54Z</time>
      </trkpt>
      <trkpt lat="45.37958" lon="4.56747">
        <ele>1374.8</ele>
        <time>2023-05-18T13:16:06Z</time>
      </trkpt>
      <trkpt lat="45.37948" lon="4.56748">
        <ele>1374.6</ele>
        <time>2023-05-18T13:16:25Z</time>
      </trkpt>
      <trkpt lat="45.37941" lon="4.56745">
        <ele>1374.4</ele>
        <time>2023-05-18T13:16:29Z</time>
      </trkpt>
      <trkpt lat="45.3794" lon="4.56744">
        <ele>1374.2</ele>
        <time>2023-05-18T13:16:30Z</time>
      </trkpt>
      <trkpt lat="45.37939" lon="4.56743">
        <ele>1374.2</ele>
        <time>2023-05-18T13:16:31Z</time>
      </trkpt>
      <trkpt lat="45.37938" lon="4.56742">
        <ele>1374.2</ele>
        <time>2023-05-18T13:16:32Z</time>
      </trkpt>
      <trkpt lat="45.37935" lon="4.56742">
        <ele>1373.4</ele>
        <time>2023-05-18T13:16:40Z</time>
      </trkpt>
      <trkpt lat="45.37919" lon="4.5674">
        <ele>1371.4</ele>
        <time>2023-05-18T13:16:57Z</time>
      </trkpt>
      <trkpt lat="45.37907" lon="4.56732">
        <ele>1370.8</ele>
        <time>2023-05-18T13:17:06Z</time>
      </trkpt>
      <trkpt lat="45.37903" lon="4.56728">
        <ele>1370.2</ele>
        <time>2023-05-18T13:17:11Z</time>
      </trkpt>
      <trkpt lat="45.37892" lon="4.56716">
        <ele>1368.4</ele>
        <time>2023-05-18T13:17:28Z</time>
      </trkpt>
      <trkpt lat="45.37889" lon="4.56714">
        <ele>1368.2</ele>
        <time>2023-05-18T13:17:30Z</time>
      </trkpt>
      <trkpt lat="45.37886" lon="4.56713">
        <ele>1368.2</ele>
        <time>2023-05-18T13:17:31Z</time>
      </trkpt>
      <trkpt lat="45.37885" lon="4.56712">
        <ele>1368</ele>
        <time>2023-05-18T13:17:32Z</time>
      </trkpt>
      <trkpt lat="45.37883" lon="4.5671">
        <ele>1367.8</ele>
        <time>2023-05-18T13:17:33Z</time>
      </trkpt>
      <trkpt lat="45.37883" lon="4.56709">
        <ele>1367.6</ele>
        <time>2023-05-18T13:17:34Z</time>
      </trkpt>
      <trkpt lat="45.37883" lon="4.56707">
        <ele>1367.6</ele>
        <time>2023-05-18T13:17:35Z</time>
      </trkpt>
      <trkpt lat="45.37882" lon="4.56705">
        <ele>1367.6</ele>
        <time>2023-05-18T13:17:36Z</time>
      </trkpt>
      <trkpt lat="45.37872" lon="4.56698">
        <ele>1366.4</ele>
        <time>2023-05-18T13:17:49Z</time>
      </trkpt>
      <trkpt lat="45.37867" lon="4.56697">
        <ele>1366</ele>
        <time>2023-05-18T13:17:51Z</time>
      </trkpt>
      <trkpt lat="45.37865" lon="4.56697">
        <ele>1366</ele>
        <time>2023-05-18T13:17:52Z</time>
      </trkpt>
      <trkpt lat="45.37856" lon="4.56687">
        <ele>1364.6</ele>
        <time>2023-05-18T13:18:04Z</time>
      </trkpt>
      <trkpt lat="45.37845" lon="4.56678">
        <ele>1363.8</ele>
        <time>2023-05-18T13:18:14Z</time>
      </trkpt>
      <trkpt lat="45.37844" lon="4.56677">
        <ele>1363.6</ele>
        <time>2023-05-18T13:18:15Z</time>
      </trkpt>
      <trkpt lat="45.37843" lon="4.56675">
        <ele>1363.4</ele>
        <time>2023-05-18T13:18:16Z</time>
      </trkpt>
      <trkpt lat="45.37843" lon="4.56667">
        <ele>1362.6</ele>
        <time>2023-05-18T13:18:27Z</time>
      </trkpt>
      <trkpt lat="45.37838" lon="4.56664">
        <ele>1361.6</ele>
        <time>2023-05-18T13:18:37Z</time>
      </trkpt>
      <trkpt lat="45.37834" lon="4.56657">
        <ele>1360.6</ele>
        <time>2023-05-18T13:18:50Z</time>
      </trkpt>
      <trkpt lat="45.37827" lon="4.56655">
        <ele>1360</ele>
        <time>2023-05-18T13:18:58Z</time>
      </trkpt>
      <trkpt lat="45.37822" lon="4.56646">
        <ele>1359.2</ele>
        <time>2023-05-18T13:19:16Z</time>
      </trkpt>
      <trkpt lat="45.37818" lon="4.56644">
        <ele>1358.8</ele>
        <time>2023-05-18T13:19:22Z</time>
      </trkpt>
      <trkpt lat="45.37814" lon="4.56645">
        <ele>1358.2</ele>
        <time>2023-05-18T13:19:25Z</time>
      </trkpt>
      <trkpt lat="45.37812" lon="4.56639">
        <ele>1358.2</ele>
        <time>2023-05-18T13:19:30Z</time>
      </trkpt>
      <trkpt lat="45.37812" lon="4.56637">
        <ele>1358</ele>
        <time>2023-05-18T13:19:31Z</time>
      </trkpt>
      <trkpt lat="45.37811" lon="4.56635">
        <ele>1358</ele>
        <time>2023-05-18T13:19:32Z</time>
      </trkpt>
      <trkpt lat="45.37803" lon="4.56631">
        <ele>1357.4</ele>
        <time>2023-05-18T13:19:43Z</time>
      </trkpt>
      <trkpt lat="45.37783" lon="4.56609">
        <ele>1354.6</ele>
        <time>2023-05-18T13:20:09Z</time>
      </trkpt>
      <trkpt lat="45.37771" lon="4.56597">
        <ele>1351.6</ele>
        <time>2023-05-18T13:20:28Z</time>
      </trkpt>
      <trkpt lat="45.37753" lon="4.56577">
        <ele>1349</ele>
        <time>2023-05-18T13:20:44Z</time>
      </trkpt>
      <trkpt lat="45.3774" lon="4.56563">
        <ele>1346.4</ele>
        <time>2023-05-18T13:21:02Z</time>
      </trkpt>
      <trkpt lat="45.37726" lon="4.56552">
        <ele>1344.2</ele>
        <time>2023-05-18T13:21:17Z</time>
      </trkpt>
      <trkpt lat="45.37709" lon="4.56536">
        <ele>1341.6</ele>
        <time>2023-05-18T13:21:35Z</time>
      </trkpt>
      <trkpt lat="45.37702" lon="4.56509">
        <ele>1339.4</ele>
        <time>2023-05-18T13:21:50Z</time>
      </trkpt>
      <trkpt lat="45.3769" lon="4.56492">
        <ele>1336.6</ele>
        <time>2023-05-18T13:22:10Z</time>
      </trkpt>
      <trkpt lat="45.37682" lon="4.5649">
        <ele>1335.6</ele>
        <time>2023-05-18T13:22:15Z</time>
      </trkpt>
      <trkpt lat="45.3767" lon="4.56466">
        <ele>1332.4</ele>
        <time>2023-05-18T13:22:34Z</time>
      </trkpt>
      <trkpt lat="45.37652" lon="4.56454">
        <ele>1329.6</ele>
        <time>2023-05-18T13:23:01Z</time>
      </trkpt>
      <trkpt lat="45.37646" lon="4.56453">
        <ele>1328.2</ele>
        <time>2023-05-18T13:23:13Z</time>
      </trkpt>
      <trkpt lat="45.37635" lon="4.56455">
        <ele>1326.4</ele>
        <time>2023-05-18T13:23:30Z</time>
      </trkpt>
      <trkpt lat="45.37627" lon="4.56461">
        <ele>1325.6</ele>
        <time>2023-05-18T13:23:42Z</time>
      </trkpt>
      <trkpt lat="45.37613" lon="4.56459">
        <ele>1324.2</ele>
        <time>2023-05-18T13:23:59Z</time>
      </trkpt>
      <trkpt lat="45.37604" lon="4.56464">
        <ele>1323.6</ele>
        <time>2023-05-18T13:24:08Z</time>
      </trkpt>
      <trkpt lat="45.37598" lon="4.56466">
        <ele>1323.2</ele>
        <time>2023-05-18T13:24:14Z</time>
      </trkpt>
      <trkpt lat="45.37584" lon="4.56464">
        <ele>1322</ele>
        <time>2023-05-18T13:24:29Z</time>
      </trkpt>
      <trkpt lat="45.37578" lon="4.56456">
        <ele>1321.6</ele>
        <time>2023-05-18T13:24:35Z</time>
      </trkpt>
      <trkpt lat="45.37555" lon="4.56434">
        <ele>1319.6</ele>
        <time>2023-05-18T13:24:50Z</time>
      </trkpt>
      <trkpt lat="45.37547" lon="4.56431">
        <ele>1318.2</ele>
        <time>2023-05-18T13:25:01Z</time>
      </trkpt>
      <trkpt lat="45.3754" lon="4.5643">
        <ele>1317.6</ele>
        <time>2023-05-18T13:25:13Z</time>
      </trkpt>
      <trkpt lat="45.37478" lon="4.56342">
        <ele>1316.4</ele>
        <time>2023-05-18T13:25:27Z</time>
      </trkpt>
      <trkpt lat="45.37461" lon="4.56327">
        <ele>1315.2</ele>
        <time>2023-05-18T13:25:44Z</time>
      </trkpt>
      <trkpt lat="45.37455" lon="4.5633">
        <ele>1315.2</ele>
        <time>2023-05-18T13:26:12Z</time>
      </trkpt>
      <trkpt lat="45.37456" lon="4.56327">
        <ele>1315.2</ele>
        <time>2023-05-18T13:26:15Z</time>
      </trkpt>
      <trkpt lat="45.37453" lon="4.56326">
        <ele>1315</ele>
        <time>2023-05-18T13:26:30Z</time>
      </trkpt>
      <trkpt lat="45.37452" lon="4.56324">
        <ele>1315</ele>
        <time>2023-05-18T13:26:31Z</time>
      </trkpt>
      <trkpt lat="45.3745" lon="4.56322">
        <ele>1315</ele>
        <time>2023-05-18T13:26:32Z</time>
      </trkpt>
      <trkpt lat="45.37447" lon="4.56321">
        <ele>1315</ele>
        <time>2023-05-18T13:26:33Z</time>
      </trkpt>
      <trkpt lat="45.37446" lon="4.5632">
        <ele>1315</ele>
        <time>2023-05-18T13:26:34Z</time>
      </trkpt>
      <trkpt lat="45.37445" lon="4.56318">
        <ele>1315</ele>
        <time>2023-05-18T13:26:35Z</time>
      </trkpt>
      <trkpt lat="45.37427" lon="4.56301">
        <ele>1314.2</ele>
        <time>2023-05-18T13:26:49Z</time>
      </trkpt>
      <trkpt lat="45.37411" lon="4.56286">
        <ele>1312.4</ele>
        <time>2023-05-18T13:27:01Z</time>
      </trkpt>
      <trkpt lat="45.37405" lon="4.56274">
        <ele>1310.4</ele>
        <time>2023-05-18T13:27:13Z</time>
      </trkpt>
      <trkpt lat="45.37405" lon="4.56273">
        <ele>1309.4</ele>
        <time>2023-05-18T13:27:18Z</time>
      </trkpt>
      <trkpt lat="45.37404" lon="4.56273">
        <ele>1309.2</ele>
        <time>2023-05-18T13:27:19Z</time>
      </trkpt>
      <trkpt lat="45.3739" lon="4.56265">
        <ele>1307.6</ele>
        <time>2023-05-18T13:27:35Z</time>
      </trkpt>
      <trkpt lat="45.37386" lon="4.56261">
        <ele>1307</ele>
        <time>2023-05-18T13:27:39Z</time>
      </trkpt>
      <trkpt lat="45.37379" lon="4.56248">
        <ele>1305.6</ele>
        <time>2023-05-18T13:27:52Z</time>
      </trkpt>
      <trkpt lat="45.3737" lon="4.56233">
        <ele>1304.4</ele>
        <time>2023-05-18T13:28:11Z</time>
      </trkpt>
      <trkpt lat="45.37367" lon="4.56238">
        <ele>1304</ele>
        <time>2023-05-18T13:28:30Z</time>
      </trkpt>
      <trkpt lat="45.37366" lon="4.56239">
        <ele>1304</ele>
        <time>2023-05-18T13:28:32Z</time>
      </trkpt>
      <trkpt lat="45.37365" lon="4.56239">
        <ele>1304</ele>
        <time>2023-05-18T13:28:33Z</time>
      </trkpt>
      <trkpt lat="45.37363" lon="4.5624">
        <ele>1304</ele>
        <time>2023-05-18T13:28:34Z</time>
      </trkpt>
      <trkpt lat="45.37359" lon="4.5624">
        <ele>1303.8</ele>
        <time>2023-05-18T13:28:38Z</time>
      </trkpt>
      <trkpt lat="45.37358" lon="4.56239">
        <ele>1303.8</ele>
        <time>2023-05-18T13:28:39Z</time>
      </trkpt>
      <trkpt lat="45.37345" lon="4.56217">
        <ele>1303.2</ele>
        <time>2023-05-18T13:28:55Z</time>
      </trkpt>
      <trkpt lat="45.37328" lon="4.56188">
        <ele>1302.6</ele>
        <time>2023-05-18T13:29:16Z</time>
      </trkpt>
      <trkpt lat="45.37318" lon="4.56182">
        <ele>1302.4</ele>
        <time>2023-05-18T13:29:29Z</time>
      </trkpt>
      <trkpt lat="45.37313" lon="4.56167">
        <ele>1301.8</ele>
        <time>2023-05-18T13:29:42Z</time>
      </trkpt>
      <trkpt lat="45.37296" lon="4.56142">
        <ele>1301.6</ele>
        <time>2023-05-18T13:30:11Z</time>
      </trkpt>
      <trkpt lat="45.37279" lon="4.56107">
        <ele>1301.8</ele>
        <time>2023-05-18T13:30:23Z</time>
      </trkpt>
      <trkpt lat="45.37272" lon="4.56096">
        <ele>1301.8</ele>
        <time>2023-05-18T13:30:38Z</time>
      </trkpt>
      <trkpt lat="45.37267" lon="4.5609">
        <ele>1302</ele>
        <time>2023-05-18T13:30:51Z</time>
      </trkpt>
      <trkpt lat="45.37249" lon="4.5607">
        <ele>1303.2</ele>
        <time>2023-05-18T13:31:08Z</time>
      </trkpt>
      <trkpt lat="45.3724" lon="4.56045">
        <ele>1303.6</ele>
        <time>2023-05-18T13:31:26Z</time>
      </trkpt>
      <trkpt lat="45.3723" lon="4.56019">
        <ele>1303.8</ele>
        <time>2023-05-18T13:31:39Z</time>
      </trkpt>
      <trkpt lat="45.37231" lon="4.56006">
        <ele>1303.8</ele>
        <time>2023-05-18T13:31:52Z</time>
      </trkpt>
      <trkpt lat="45.3723" lon="4.55991">
        <ele>1303.2</ele>
        <time>2023-05-18T13:32:05Z</time>
      </trkpt>
      <trkpt lat="45.37231" lon="4.55979">
        <ele>1303.6</ele>
        <time>2023-05-18T13:32:17Z</time>
      </trkpt>
      <trkpt lat="45.37227" lon="4.55968">
        <ele>1303.6</ele>
        <time>2023-05-18T13:32:22Z</time>
      </trkpt>
      <trkpt lat="45.37227" lon="4.55955">
        <ele>1303.4</ele>
        <time>2023-05-18T13:32:30Z</time>
      </trkpt>
      <trkpt lat="45.37225" lon="4.55936">
        <ele>1303.2</ele>
        <time>2023-05-18T13:32:41Z</time>
      </trkpt>
      <trkpt lat="45.37225" lon="4.55922">
        <ele>1302.6</ele>
        <time>2023-05-18T13:32:51Z</time>
      </trkpt>
      <trkpt lat="45.37223" lon="4.55907">
        <ele>1301.8</ele>
        <time>2023-05-18T13:33:00Z</time>
      </trkpt>
      <trkpt lat="45.37219" lon="4.55886">
        <ele>1300.8</ele>
        <time>2023-05-18T13:33:13Z</time>
      </trkpt>
      <trkpt lat="45.37215" lon="4.55868">
        <ele>1299.8</ele>
        <time>2023-05-18T13:33:21Z</time>
      </trkpt>
      <trkpt lat="45.37214" lon="4.5586">
        <ele>1299.6</ele>
        <time>2023-05-18T13:33:23Z</time>
      </trkpt>
      <trkpt lat="45.37197" lon="4.55827">
        <ele>1298.4</ele>
        <time>2023-05-18T13:33:35Z</time>
      </trkpt>
      <trkpt lat="45.37188" lon="4.55815">
        <ele>1298.2</ele>
        <time>2023-05-18T13:33:45Z</time>
      </trkpt>
      <trkpt lat="45.37175" lon="4.55806">
        <ele>1298.2</ele>
        <time>2023-05-18T13:33:55Z</time>
      </trkpt>
      <trkpt lat="45.37164" lon="4.55799">
        <ele>1298</ele>
        <time>2023-05-18T13:34:01Z</time>
      </trkpt>
      <trkpt lat="45.37155" lon="4.5579">
        <ele>1298</ele>
        <time>2023-05-18T13:34:08Z</time>
      </trkpt>
      <trkpt lat="45.3715" lon="4.55775">
        <ele>1297.4</ele>
        <time>2023-05-18T13:34:18Z</time>
      </trkpt>
      <trkpt lat="45.37154" lon="4.55767">
        <ele>1295.8</ele>
        <time>2023-05-18T13:34:26Z</time>
      </trkpt>
      <trkpt lat="45.37153" lon="4.55765">
        <ele>1295.6</ele>
        <time>2023-05-18T13:34:27Z</time>
      </trkpt>
      <trkpt lat="45.37153" lon="4.55763">
        <ele>1295.6</ele>
        <time>2023-05-18T13:34:28Z</time>
      </trkpt>
      <trkpt lat="45.37152" lon="4.55761">
        <ele>1295.4</ele>
        <time>2023-05-18T13:34:29Z</time>
      </trkpt>
      <trkpt lat="45.37151" lon="4.55759">
        <ele>1295.4</ele>
        <time>2023-05-18T13:34:30Z</time>
      </trkpt>
      <trkpt lat="45.3715" lon="4.55756">
        <ele>1295.4</ele>
        <time>2023-05-18T13:34:31Z</time>
      </trkpt>
      <trkpt lat="45.37141" lon="4.55735">
        <ele>1293.6</ele>
        <time>2023-05-18T13:34:42Z</time>
      </trkpt>
      <trkpt lat="45.37134" lon="4.55723">
        <ele>1293</ele>
        <time>2023-05-18T13:34:49Z</time>
      </trkpt>
      <trkpt lat="45.37126" lon="4.55702">
        <ele>1292.4</ele>
        <time>2023-05-18T13:35:05Z</time>
      </trkpt>
      <trkpt lat="45.37111" lon="4.55684">
        <ele>1292.4</ele>
        <time>2023-05-18T13:35:14Z</time>
      </trkpt>
      <trkpt lat="45.37086" lon="4.55663">
        <ele>1290.8</ele>
        <time>2023-05-18T13:35:26Z</time>
      </trkpt>
      <trkpt lat="45.37087" lon="4.55652">
        <ele>1290.6</ele>
        <time>2023-05-18T13:35:32Z</time>
      </trkpt>
      <trkpt lat="45.37089" lon="4.5565">
        <ele>1290.6</ele>
        <time>2023-05-18T13:35:33Z</time>
      </trkpt>
      <trkpt lat="45.37095" lon="4.55642">
        <ele>1291</ele>
        <time>2023-05-18T13:35:40Z</time>
      </trkpt>
      <trkpt lat="45.37096" lon="4.55629">
        <ele>1291</ele>
        <time>2023-05-18T13:35:46Z</time>
      </trkpt>
      <trkpt lat="45.37096" lon="4.55617">
        <ele>1290.8</ele>
        <time>2023-05-18T13:35:53Z</time>
      </trkpt>
      <trkpt lat="45.37098" lon="4.55611">
        <ele>1290.8</ele>
        <time>2023-05-18T13:35:56Z</time>
      </trkpt>
      <trkpt lat="45.37099" lon="4.55609">
        <ele>1290.6</ele>
        <time>2023-05-18T13:35:57Z</time>
      </trkpt>
      <trkpt lat="45.371" lon="4.55607">
        <ele>1290.6</ele>
        <time>2023-05-18T13:35:58Z</time>
      </trkpt>
      <trkpt lat="45.37122" lon="4.55595">
        <ele>1290.6</ele>
        <time>2023-05-18T13:36:09Z</time>
      </trkpt>
      <trkpt lat="45.37147" lon="4.5558">
        <ele>1291.8</ele>
        <time>2023-05-18T13:36:19Z</time>
      </trkpt>
      <trkpt lat="45.37163" lon="4.5556">
        <ele>1292.2</ele>
        <time>2023-05-18T13:36:29Z</time>
      </trkpt>
      <trkpt lat="45.37159" lon="4.55556">
        <ele>1292.4</ele>
        <time>2023-05-18T13:36:35Z</time>
      </trkpt>
      <trkpt lat="45.3715" lon="4.55547">
        <ele>1292.6</ele>
        <time>2023-05-18T13:36:42Z</time>
      </trkpt>
      <trkpt lat="45.37144" lon="4.55529">
        <ele>1293.2</ele>
        <time>2023-05-18T13:36:56Z</time>
      </trkpt>
      <trkpt lat="45.37132" lon="4.55509">
        <ele>1293</ele>
        <time>2023-05-18T13:37:03Z</time>
      </trkpt>
      <trkpt lat="45.37123" lon="4.55509">
        <ele>1293</ele>
        <time>2023-05-18T13:37:04Z</time>
      </trkpt>
      <trkpt lat="45.37121" lon="4.55507">
        <ele>1293</ele>
        <time>2023-05-18T13:37:05Z</time>
      </trkpt>
      <trkpt lat="45.37096" lon="4.55481">
        <ele>1293</ele>
        <time>2023-05-18T13:37:19Z</time>
      </trkpt>
      <trkpt lat="45.37096" lon="4.55474">
        <ele>1293</ele>
        <time>2023-05-18T13:37:22Z</time>
      </trkpt>
      <trkpt lat="45.37099" lon="4.55457">
        <ele>1293.2</ele>
        <time>2023-05-18T13:37:37Z</time>
      </trkpt>
      <trkpt lat="45.37117" lon="4.55445">
        <ele>1292.2</ele>
        <time>2023-05-18T13:38:01Z</time>
      </trkpt>
      <trkpt lat="45.37118" lon="4.55445">
        <ele>1292</ele>
        <time>2023-05-18T13:38:02Z</time>
      </trkpt>
      <trkpt lat="45.37134" lon="4.55435">
        <ele>1290.6</ele>
        <time>2023-05-18T13:38:12Z</time>
      </trkpt>
      <trkpt lat="45.3714" lon="4.55421">
        <ele>1290.2</ele>
        <time>2023-05-18T13:38:21Z</time>
      </trkpt>
      <trkpt lat="45.37173" lon="4.554">
        <ele>1289.6</ele>
        <time>2023-05-18T13:38:34Z</time>
      </trkpt>
      <trkpt lat="45.37192" lon="4.55387">
        <ele>1288.4</ele>
        <time>2023-05-18T13:38:42Z</time>
      </trkpt>
      <trkpt lat="45.37194" lon="4.5537">
        <ele>1287.6</ele>
        <time>2023-05-18T13:38:53Z</time>
      </trkpt>
      <trkpt lat="45.37176" lon="4.55345">
        <ele>1287.8</ele>
        <time>2023-05-18T13:39:07Z</time>
      </trkpt>
      <trkpt lat="45.37176" lon="4.55341">
        <ele>1287.8</ele>
        <time>2023-05-18T13:39:08Z</time>
      </trkpt>
      <trkpt lat="45.37171" lon="4.55325">
        <ele>1287.8</ele>
        <time>2023-05-18T13:39:18Z</time>
      </trkpt>
      <trkpt lat="45.37151" lon="4.55299">
        <ele>1286.6</ele>
        <time>2023-05-18T13:39:31Z</time>
      </trkpt>
      <trkpt lat="45.37132" lon="4.55288">
        <ele>1286.4</ele>
        <time>2023-05-18T13:39:36Z</time>
      </trkpt>
      <trkpt lat="45.37113" lon="4.5527">
        <ele>1285.4</ele>
        <time>2023-05-18T13:39:45Z</time>
      </trkpt>
      <trkpt lat="45.37088" lon="4.55248">
        <ele>1284.8</ele>
        <time>2023-05-18T13:39:55Z</time>
      </trkpt>
      <trkpt lat="45.37112" lon="4.55214">
        <ele>1284.4</ele>
        <time>2023-05-18T13:40:12Z</time>
      </trkpt>
      <trkpt lat="45.37112" lon="4.55205">
        <ele>1283.8</ele>
        <time>2023-05-18T13:40:22Z</time>
      </trkpt>
      <trkpt lat="45.37119" lon="4.55205">
        <ele>1284</ele>
        <time>2023-05-18T13:40:38Z</time>
      </trkpt>
      <trkpt lat="45.3713" lon="4.55168">
        <ele>1282.8</ele>
        <time>2023-05-18T13:41:14Z</time>
      </trkpt>
      <trkpt lat="45.37134" lon="4.5515">
        <ele>1283.2</ele>
        <time>2023-05-18T13:41:30Z</time>
      </trkpt>
      <trkpt lat="45.37137" lon="4.55142">
        <ele>1282.4</ele>
        <time>2023-05-18T13:41:38Z</time>
      </trkpt>
      <trkpt lat="45.37134" lon="4.55115">
        <ele>1281.4</ele>
        <time>2023-05-18T13:41:56Z</time>
      </trkpt>
      <trkpt lat="45.37167" lon="4.55091">
        <ele>1280.8</ele>
        <time>2023-05-18T13:42:14Z</time>
      </trkpt>
      <trkpt lat="45.37195" lon="4.55081">
        <ele>1281</ele>
        <time>2023-05-18T13:42:25Z</time>
      </trkpt>
      <trkpt lat="45.37202" lon="4.55074">
        <ele>1281</ele>
        <time>2023-05-18T13:42:32Z</time>
      </trkpt>
      <trkpt lat="45.37204" lon="4.55054">
        <ele>1281.6</ele>
        <time>2023-05-18T13:42:46Z</time>
      </trkpt>
      <trkpt lat="45.37205" lon="4.55053">
        <ele>1281.6</ele>
        <time>2023-05-18T13:42:47Z</time>
      </trkpt>
      <trkpt lat="45.37211" lon="4.55038">
        <ele>1281.4</ele>
        <time>2023-05-18T13:43:00Z</time>
      </trkpt>
      <trkpt lat="45.37206" lon="4.55022">
        <ele>1281</ele>
        <time>2023-05-18T13:43:09Z</time>
      </trkpt>
      <trkpt lat="45.37209" lon="4.55014">
        <ele>1281</ele>
        <time>2023-05-18T13:43:10Z</time>
      </trkpt>
      <trkpt lat="45.37211" lon="4.55013">
        <ele>1281</ele>
        <time>2023-05-18T13:43:11Z</time>
      </trkpt>
      <trkpt lat="45.37222" lon="4.54996">
        <ele>1280.4</ele>
        <time>2023-05-18T13:43:23Z</time>
      </trkpt>
      <trkpt lat="45.37228" lon="4.5498">
        <ele>1279.8</ele>
        <time>2023-05-18T13:43:32Z</time>
      </trkpt>
      <trkpt lat="45.37233" lon="4.54967">
        <ele>1279</ele>
        <time>2023-05-18T13:43:43Z</time>
      </trkpt>
      <trkpt lat="45.37232" lon="4.5496">
        <ele>1279</ele>
        <time>2023-05-18T13:43:53Z</time>
      </trkpt>
      <trkpt lat="45.37244" lon="4.54944">
        <ele>1277.6</ele>
        <time>2023-05-18T13:44:06Z</time>
      </trkpt>
      <trkpt lat="45.37246" lon="4.54941">
        <ele>1277.4</ele>
        <time>2023-05-18T13:44:07Z</time>
      </trkpt>
      <trkpt lat="45.37246" lon="4.54938">
        <ele>1277</ele>
        <time>2023-05-18T13:44:08Z</time>
      </trkpt>
      <trkpt lat="45.37217" lon="4.54895">
        <ele>1274.8</ele>
        <time>2023-05-18T13:44:24Z</time>
      </trkpt>
      <trkpt lat="45.37192" lon="4.54869">
        <ele>1274.4</ele>
        <time>2023-05-18T13:44:44Z</time>
      </trkpt>
      <trkpt lat="45.372" lon="4.54864">
        <ele>1273.4</ele>
        <time>2023-05-18T13:44:57Z</time>
      </trkpt>
      <trkpt lat="45.37201" lon="4.54846">
        <ele>1271.6</ele>
        <time>2023-05-18T13:45:21Z</time>
      </trkpt>
      <trkpt lat="45.37193" lon="4.54823">
        <ele>1269</ele>
        <time>2023-05-18T13:45:43Z</time>
      </trkpt>
      <trkpt lat="45.37188" lon="4.54793">
        <ele>1266.8</ele>
        <time>2023-05-18T13:46:09Z</time>
      </trkpt>
      <trkpt lat="45.37186" lon="4.54797">
        <ele>1266.4</ele>
        <time>2023-05-18T13:46:36Z</time>
      </trkpt>
      <trkpt lat="45.37199" lon="4.54793">
        <ele>1266</ele>
        <time>2023-05-18T13:47:12Z</time>
      </trkpt>
      <trkpt lat="45.37198" lon="4.54797">
        <ele>1266.2</ele>
        <time>2023-05-18T13:47:27Z</time>
      </trkpt>
      <trkpt lat="45.37203" lon="4.54802">
        <ele>1266.6</ele>
        <time>2023-05-18T13:47:45Z</time>
      </trkpt>
      <trkpt lat="45.37206" lon="4.54799">
        <ele>1267.4</ele>
        <time>2023-05-18T13:48:18Z</time>
      </trkpt>
      <trkpt lat="45.37207" lon="4.54795">
        <ele>1267.4</ele>
        <time>2023-05-18T13:48:21Z</time>
      </trkpt>
      <trkpt lat="45.37191" lon="4.54759">
        <ele>1265.8</ele>
        <time>2023-05-18T13:48:47Z</time>
      </trkpt>
      <trkpt lat="45.37175" lon="4.54738">
        <ele>1262.6</ele>
        <time>2023-05-18T13:49:09Z</time>
      </trkpt>
      <trkpt lat="45.3716" lon="4.54727">
        <ele>1259.6</ele>
        <time>2023-05-18T13:49:28Z</time>
      </trkpt>
      <trkpt lat="45.37145" lon="4.54704">
        <ele>1256.4</ele>
        <time>2023-05-18T13:49:51Z</time>
      </trkpt>
      <trkpt lat="45.37141" lon="4.54693">
        <ele>1255.2</ele>
        <time>2023-05-18T13:50:03Z</time>
      </trkpt>
      <trkpt lat="45.37134" lon="4.5468">
        <ele>1253.2</ele>
        <time>2023-05-18T13:50:15Z</time>
      </trkpt>
      <trkpt lat="45.37131" lon="4.54665">
        <ele>1251.4</ele>
        <time>2023-05-18T13:50:26Z</time>
      </trkpt>
      <trkpt lat="45.37126" lon="4.54653">
        <ele>1250.2</ele>
        <time>2023-05-18T13:50:36Z</time>
      </trkpt>
      <trkpt lat="45.3712" lon="4.54639">
        <ele>1249</ele>
        <time>2023-05-18T13:50:46Z</time>
      </trkpt>
      <trkpt lat="45.37113" lon="4.54622">
        <ele>1247.4</ele>
        <time>2023-05-18T13:50:58Z</time>
      </trkpt>
      <trkpt lat="45.37107" lon="4.54615">
        <ele>1245.8</ele>
        <time>2023-05-18T13:51:07Z</time>
      </trkpt>
      <trkpt lat="45.37087" lon="4.54591">
        <ele>1242.8</ele>
        <time>2023-05-18T13:51:30Z</time>
      </trkpt>
      <trkpt lat="45.37091" lon="4.54596">
        <ele>1242.2</ele>
        <time>2023-05-18T13:51:49Z</time>
      </trkpt>
      <trkpt lat="45.37079" lon="4.54584">
        <ele>1241.4</ele>
        <time>2023-05-18T13:52:06Z</time>
      </trkpt>
      <trkpt lat="45.37074" lon="4.54573">
        <ele>1240</ele>
        <time>2023-05-18T13:52:16Z</time>
      </trkpt>
      <trkpt lat="45.37064" lon="4.54559">
        <ele>1238.6</ele>
        <time>2023-05-18T13:52:28Z</time>
      </trkpt>
      <trkpt lat="45.37048" lon="4.54546">
        <ele>1235.8</ele>
        <time>2023-05-18T13:52:47Z</time>
      </trkpt>
      <trkpt lat="45.37044" lon="4.54537">
        <ele>1234.8</ele>
        <time>2023-05-18T13:52:55Z</time>
      </trkpt>
      <trkpt lat="45.37037" lon="4.54514">
        <ele>1231.8</ele>
        <time>2023-05-18T13:53:13Z</time>
      </trkpt>
      <trkpt lat="45.37027" lon="4.5449">
        <ele>1228.8</ele>
        <time>2023-05-18T13:53:30Z</time>
      </trkpt>
      <trkpt lat="45.37018" lon="4.54472">
        <ele>1226.4</ele>
        <time>2023-05-18T13:53:42Z</time>
      </trkpt>
      <trkpt lat="45.37029" lon="4.54446">
        <ele>1225.6</ele>
        <time>2023-05-18T13:53:49Z</time>
      </trkpt>
      <trkpt lat="45.3703" lon="4.54444">
        <ele>1225.6</ele>
        <time>2023-05-18T13:53:50Z</time>
      </trkpt>
      <trkpt lat="45.37016" lon="4.54413">
        <ele>1223.4</ele>
        <time>2023-05-18T13:54:08Z</time>
      </trkpt>
      <trkpt lat="45.37016" lon="4.54411">
        <ele>1223.4</ele>
        <time>2023-05-18T13:54:09Z</time>
      </trkpt>
      <trkpt lat="45.37015" lon="4.5441">
        <ele>1223.4</ele>
        <time>2023-05-18T13:54:10Z</time>
      </trkpt>
      <trkpt lat="45.37014" lon="4.54407">
        <ele>1223.2</ele>
        <time>2023-05-18T13:54:12Z</time>
      </trkpt>
      <trkpt lat="45.37014" lon="4.54405">
        <ele>1223.2</ele>
        <time>2023-05-18T13:54:13Z</time>
      </trkpt>
      <trkpt lat="45.37014" lon="4.54404">
        <ele>1223.2</ele>
        <time>2023-05-18T13:54:14Z</time>
      </trkpt>
      <trkpt lat="45.37014" lon="4.54402">
        <ele>1223</ele>
        <time>2023-05-18T13:54:15Z</time>
      </trkpt>
      <trkpt lat="45.37014" lon="4.54401">
        <ele>1223</ele>
        <time>2023-05-18T13:54:16Z</time>
      </trkpt>
      <trkpt lat="45.37011" lon="4.54389">
        <ele>1222.4</ele>
        <time>2023-05-18T13:54:23Z</time>
      </trkpt>
      <trkpt lat="45.37011" lon="4.54386">
        <ele>1222.4</ele>
        <time>2023-05-18T13:54:24Z</time>
      </trkpt>
      <trkpt lat="45.37011" lon="4.54384">
        <ele>1222.2</ele>
        <time>2023-05-18T13:54:25Z</time>
      </trkpt>
      <trkpt lat="45.37011" lon="4.54382">
        <ele>1222.2</ele>
        <time>2023-05-18T13:54:26Z</time>
      </trkpt>
      <trkpt lat="45.3701" lon="4.5438">
        <ele>1222</ele>
        <time>2023-05-18T13:54:27Z</time>
      </trkpt>
      <trkpt lat="45.37009" lon="4.54378">
        <ele>1221.8</ele>
        <time>2023-05-18T13:54:28Z</time>
      </trkpt>
      <trkpt lat="45.37008" lon="4.54346">
        <ele>1220.2</ele>
        <time>2023-05-18T13:54:46Z</time>
      </trkpt>
      <trkpt lat="45.37012" lon="4.54312">
        <ele>1218.4</ele>
        <time>2023-05-18T13:55:05Z</time>
      </trkpt>
      <trkpt lat="45.37009" lon="4.54286">
        <ele>1218</ele>
        <time>2023-05-18T13:55:19Z</time>
      </trkpt>
      <trkpt lat="45.37005" lon="4.54262">
        <ele>1217.4</ele>
        <time>2023-05-18T13:55:32Z</time>
      </trkpt>
      <trkpt lat="45.37005" lon="4.54241">
        <ele>1217.4</ele>
        <time>2023-05-18T13:55:44Z</time>
      </trkpt>
      <trkpt lat="45.37003" lon="4.54232">
        <ele>1218</ele>
        <time>2023-05-18T13:55:51Z</time>
      </trkpt>
      <trkpt lat="45.37003" lon="4.5423">
        <ele>1218</ele>
        <time>2023-05-18T13:55:52Z</time>
      </trkpt>
      <trkpt lat="45.37001" lon="4.54226">
        <ele>1218</ele>
        <time>2023-05-18T13:55:54Z</time>
      </trkpt>
      <trkpt lat="45.37001" lon="4.54219">
        <ele>1218.4</ele>
        <time>2023-05-18T13:55:58Z</time>
      </trkpt>
      <trkpt lat="45.37002" lon="4.54215">
        <ele>1218.4</ele>
        <time>2023-05-18T13:55:59Z</time>
      </trkpt>
      <trkpt lat="45.37002" lon="4.54213">
        <ele>1218.4</ele>
        <time>2023-05-18T13:56:00Z</time>
      </trkpt>
      <trkpt lat="45.37002" lon="4.5421">
        <ele>1218.6</ele>
        <time>2023-05-18T13:56:01Z</time>
      </trkpt>
      <trkpt lat="45.37003" lon="4.54209">
        <ele>1218.6</ele>
        <time>2023-05-18T13:56:02Z</time>
      </trkpt>
      <trkpt lat="45.37003" lon="4.54207">
        <ele>1218.6</ele>
        <time>2023-05-18T13:56:03Z</time>
      </trkpt>
      <trkpt lat="45.37005" lon="4.54205">
        <ele>1218.8</ele>
        <time>2023-05-18T13:56:04Z</time>
      </trkpt>
      <trkpt lat="45.37005" lon="4.54203">
        <ele>1218.8</ele>
        <time>2023-05-18T13:56:05Z</time>
      </trkpt>
      <trkpt lat="45.37004" lon="4.54201">
        <ele>1218.8</ele>
        <time>2023-05-18T13:56:06Z</time>
      </trkpt>
      <trkpt lat="45.37003" lon="4.54199">
        <ele>1218.8</ele>
        <time>2023-05-18T13:56:07Z</time>
      </trkpt>
      <trkpt lat="45.37002" lon="4.54197">
        <ele>1218.8</ele>
        <time>2023-05-18T13:56:08Z</time>
      </trkpt>
      <trkpt lat="45.37002" lon="4.54195">
        <ele>1219</ele>
        <time>2023-05-18T13:56:09Z</time>
      </trkpt>
      <trkpt lat="45.37001" lon="4.54193">
        <ele>1219</ele>
        <time>2023-05-18T13:56:10Z</time>
      </trkpt>
      <trkpt lat="45.37003" lon="4.54192">
        <ele>1219</ele>
        <time>2023-05-18T13:56:11Z</time>
      </trkpt>
      <trkpt lat="45.37002" lon="4.5419">
        <ele>1219.2</ele>
        <time>2023-05-18T13:56:12Z</time>
      </trkpt>
      <trkpt lat="45.37002" lon="4.54188">
        <ele>1219.2</ele>
        <time>2023-05-18T13:56:13Z</time>
      </trkpt>
      <trkpt lat="45.37002" lon="4.54187">
        <ele>1219.4</ele>
        <time>2023-05-18T13:56:14Z</time>
      </trkpt>
      <trkpt lat="45.37002" lon="4.54185">
        <ele>1219.4</ele>
        <time>2023-05-18T13:56:15Z</time>
      </trkpt>
      <trkpt lat="45.36999" lon="4.54166">
        <ele>1221.2</ele>
        <time>2023-05-18T13:56:31Z</time>
      </trkpt>
      <trkpt lat="45.36998" lon="4.54151">
        <ele>1222.2</ele>
        <time>2023-05-18T13:56:42Z</time>
      </trkpt>
      <trkpt lat="45.36998" lon="4.54149">
        <ele>1222.2</ele>
        <time>2023-05-18T13:56:43Z</time>
      </trkpt>
      <trkpt lat="45.36998" lon="4.54146">
        <ele>1222.2</ele>
        <time>2023-05-18T13:56:45Z</time>
      </trkpt>
      <trkpt lat="45.37" lon="4.54137">
        <ele>1222.6</ele>
        <time>2023-05-18T13:56:51Z</time>
      </trkpt>
      <trkpt lat="45.37" lon="4.54133">
        <ele>1223</ele>
        <time>2023-05-18T13:56:54Z</time>
      </trkpt>
      <trkpt lat="45.36997" lon="4.54112">
        <ele>1223.2</ele>
        <time>2023-05-18T13:57:07Z</time>
      </trkpt>
      <trkpt lat="45.36997" lon="4.54102">
        <ele>1223.2</ele>
        <time>2023-05-18T13:57:13Z</time>
      </trkpt>
      <trkpt lat="45.36996" lon="4.541">
        <ele>1223.2</ele>
        <time>2023-05-18T13:57:14Z</time>
      </trkpt>
      <trkpt lat="45.36994" lon="4.54082">
        <ele>1223.4</ele>
        <time>2023-05-18T13:57:25Z</time>
      </trkpt>
      <trkpt lat="45.36994" lon="4.5408">
        <ele>1223.4</ele>
        <time>2023-05-18T13:57:26Z</time>
      </trkpt>
      <trkpt lat="45.36995" lon="4.54077">
        <ele>1223.4</ele>
        <time>2023-05-18T13:57:27Z</time>
      </trkpt>
      <trkpt lat="45.36993" lon="4.54053">
        <ele>1223.8</ele>
        <time>2023-05-18T13:57:36Z</time>
      </trkpt>
      <trkpt lat="45.36992" lon="4.54048">
        <ele>1223.8</ele>
        <time>2023-05-18T13:57:39Z</time>
      </trkpt>
      <trkpt lat="45.36989" lon="4.54038">
        <ele>1223.8</ele>
        <time>2023-05-18T13:57:46Z</time>
      </trkpt>
      <trkpt lat="45.3699" lon="4.54019">
        <ele>1223.2</ele>
        <time>2023-05-18T13:58:00Z</time>
      </trkpt>
      <trkpt lat="45.37" lon="4.5398">
        <ele>1224.4</ele>
        <time>2023-05-18T13:58:23Z</time>
      </trkpt>
      <trkpt lat="45.37008" lon="4.53961">
        <ele>1226.2</ele>
        <time>2023-05-18T13:58:38Z</time>
      </trkpt>
      <trkpt lat="45.37014" lon="4.53944">
        <ele>1227.6</ele>
        <time>2023-05-18T13:58:49Z</time>
      </trkpt>
      <trkpt lat="45.37015" lon="4.53943">
        <ele>1227.8</ele>
        <time>2023-05-18T13:58:50Z</time>
      </trkpt>
      <trkpt lat="45.37011" lon="4.53919">
        <ele>1230.2</ele>
        <time>2023-05-18T13:59:06Z</time>
      </trkpt>
      <trkpt lat="45.37008" lon="4.53891">
        <ele>1233.2</ele>
        <time>2023-05-18T13:59:25Z</time>
      </trkpt>
      <trkpt lat="45.37005" lon="4.5386">
        <ele>1235</ele>
        <time>2023-05-18T13:59:45Z</time>
      </trkpt>
      <trkpt lat="45.37003" lon="4.53847">
        <ele>1235.8</ele>
        <time>2023-05-18T14:00:00Z</time>
      </trkpt>
      <trkpt lat="45.37003" lon="4.53845">
        <ele>1235.8</ele>
        <time>2023-05-18T14:00:01Z</time>
      </trkpt>
      <trkpt lat="45.37003" lon="4.53837">
        <ele>1235.8</ele>
        <time>2023-05-18T14:00:06Z</time>
      </trkpt>
      <trkpt lat="45.37003" lon="4.53833">
        <ele>1236</ele>
        <time>2023-05-18T14:00:08Z</time>
      </trkpt>
      <trkpt lat="45.37" lon="4.53815">
        <ele>1236</ele>
        <time>2023-05-18T14:00:21Z</time>
      </trkpt>
      <trkpt lat="45.36997" lon="4.53801">
        <ele>1236</ele>
        <time>2023-05-18T14:00:30Z</time>
      </trkpt>
      <trkpt lat="45.36994" lon="4.53784">
        <ele>1235.8</ele>
        <time>2023-05-18T14:00:40Z</time>
      </trkpt>
      <trkpt lat="45.36996" lon="4.53767">
        <ele>1235.8</ele>
        <time>2023-05-18T14:00:48Z</time>
      </trkpt>
      <trkpt lat="45.36998" lon="4.53759">
        <ele>1235.8</ele>
        <time>2023-05-18T14:00:52Z</time>
      </trkpt>
      <trkpt lat="45.36999" lon="4.53756">
        <ele>1235.8</ele>
        <time>2023-05-18T14:00:53Z</time>
      </trkpt>
      <trkpt lat="45.37006" lon="4.5374">
        <ele>1235.8</ele>
        <time>2023-05-18T14:01:02Z</time>
      </trkpt>
      <trkpt lat="45.37012" lon="4.53721">
        <ele>1235.6</ele>
        <time>2023-05-18T14:01:12Z</time>
      </trkpt>
      <trkpt lat="45.37029" lon="4.53681">
        <ele>1235.6</ele>
        <time>2023-05-18T14:01:33Z</time>
      </trkpt>
      <trkpt lat="45.37033" lon="4.53664">
        <ele>1235.8</ele>
        <time>2023-05-18T14:01:40Z</time>
      </trkpt>
      <trkpt lat="45.37029" lon="4.53643">
        <ele>1236.2</ele>
        <time>2023-05-18T14:01:49Z</time>
      </trkpt>
      <trkpt lat="45.37031" lon="4.53633">
        <ele>1236.2</ele>
        <time>2023-05-18T14:01:54Z</time>
      </trkpt>
      <trkpt lat="45.3703" lon="4.5363">
        <ele>1236.2</ele>
        <time>2023-05-18T14:01:55Z</time>
      </trkpt>
      <trkpt lat="45.37036" lon="4.53622">
        <ele>1236.2</ele>
        <time>2023-05-18T14:02:01Z</time>
      </trkpt>
      <trkpt lat="45.37042" lon="4.53605">
        <ele>1236.4</ele>
        <time>2023-05-18T14:02:12Z</time>
      </trkpt>
      <trkpt lat="45.37044" lon="4.53576">
        <ele>1236.6</ele>
        <time>2023-05-18T14:02:25Z</time>
      </trkpt>
      <trkpt lat="45.37043" lon="4.53544">
        <ele>1237.2</ele>
        <time>2023-05-18T14:02:38Z</time>
      </trkpt>
      <trkpt lat="45.37051" lon="4.53527">
        <ele>1237.4</ele>
        <time>2023-05-18T14:02:48Z</time>
      </trkpt>
      <trkpt lat="45.37053" lon="4.53525">
        <ele>1237.4</ele>
        <time>2023-05-18T14:02:49Z</time>
      </trkpt>
      <trkpt lat="45.37053" lon="4.53523">
        <ele>1237.4</ele>
        <time>2023-05-18T14:02:50Z</time>
      </trkpt>
      <trkpt lat="45.37054" lon="4.53521">
        <ele>1237.6</ele>
        <time>2023-05-18T14:02:51Z</time>
      </trkpt>
      <trkpt lat="45.37056" lon="4.5352">
        <ele>1237.6</ele>
        <time>2023-05-18T14:02:52Z</time>
      </trkpt>
      <trkpt lat="45.37056" lon="4.53488">
        <ele>1238.6</ele>
        <time>2023-05-18T14:03:05Z</time>
      </trkpt>
      <trkpt lat="45.37051" lon="4.53479">
        <ele>1239.2</ele>
        <time>2023-05-18T14:03:11Z</time>
      </trkpt>
      <trkpt lat="45.37036" lon="4.53477">
        <ele>1240.2</ele>
        <time>2023-05-18T14:03:18Z</time>
      </trkpt>
      <trkpt lat="45.37031" lon="4.53474">
        <ele>1240.8</ele>
        <time>2023-05-18T14:03:23Z</time>
      </trkpt>
      <trkpt lat="45.3702" lon="4.53462">
        <ele>1241.6</ele>
        <time>2023-05-18T14:03:30Z</time>
      </trkpt>
      <trkpt lat="45.37017" lon="4.5346">
        <ele>1241.8</ele>
        <time>2023-05-18T14:03:32Z</time>
      </trkpt>
      <trkpt lat="45.3702" lon="4.53453">
        <ele>1242.8</ele>
        <time>2023-05-18T14:03:38Z</time>
      </trkpt>
      <trkpt lat="45.37023" lon="4.53445">
        <ele>1244.2</ele>
        <time>2023-05-18T14:03:49Z</time>
      </trkpt>
      <trkpt lat="45.37011" lon="4.53428">
        <ele>1244.6</ele>
        <time>2023-05-18T14:04:01Z</time>
      </trkpt>
      <trkpt lat="45.36994" lon="4.53418">
        <ele>1245.2</ele>
        <time>2023-05-18T14:04:11Z</time>
      </trkpt>
      <trkpt lat="45.36993" lon="4.53407">
        <ele>1246.4</ele>
        <time>2023-05-18T14:04:25Z</time>
      </trkpt>
      <trkpt lat="45.36993" lon="4.53403">
        <ele>1246.4</ele>
        <time>2023-05-18T14:04:27Z</time>
      </trkpt>
      <trkpt lat="45.36993" lon="4.53397">
        <ele>1246.6</ele>
        <time>2023-05-18T14:04:30Z</time>
      </trkpt>
      <trkpt lat="45.36992" lon="4.53395">
        <ele>1246.6</ele>
        <time>2023-05-18T14:04:31Z</time>
      </trkpt>
      <trkpt lat="45.36986" lon="4.53387">
        <ele>1247</ele>
        <time>2023-05-18T14:04:37Z</time>
      </trkpt>
      <trkpt lat="45.36978" lon="4.53374">
        <ele>1247.6</ele>
        <time>2023-05-18T14:04:49Z</time>
      </trkpt>
      <trkpt lat="45.36977" lon="4.53363">
        <ele>1247.2</ele>
        <time>2023-05-18T14:05:00Z</time>
      </trkpt>
      <trkpt lat="45.36963" lon="4.53349">
        <ele>1245.2</ele>
        <time>2023-05-18T14:05:18Z</time>
      </trkpt>
      <trkpt lat="45.36948" lon="4.53312">
        <ele>1243</ele>
        <time>2023-05-18T14:05:39Z</time>
      </trkpt>
      <trkpt lat="45.36947" lon="4.5331">
        <ele>1242.8</ele>
        <time>2023-05-18T14:05:41Z</time>
      </trkpt>
      <trkpt lat="45.36942" lon="4.53298">
        <ele>1241.6</ele>
        <time>2023-05-18T14:05:51Z</time>
      </trkpt>
      <trkpt lat="45.36931" lon="4.53283">
        <ele>1238.4</ele>
        <time>2023-05-18T14:06:06Z</time>
      </trkpt>
      <trkpt lat="45.36926" lon="4.53246">
        <ele>1235.4</ele>
        <time>2023-05-18T14:06:30Z</time>
      </trkpt>
      <trkpt lat="45.36925" lon="4.53243">
        <ele>1235.2</ele>
        <time>2023-05-18T14:06:32Z</time>
      </trkpt>
      <trkpt lat="45.36922" lon="4.53228">
        <ele>1234.4</ele>
        <time>2023-05-18T14:06:42Z</time>
      </trkpt>
      <trkpt lat="45.36923" lon="4.53209">
        <ele>1233.2</ele>
        <time>2023-05-18T14:06:58Z</time>
      </trkpt>
      <trkpt lat="45.36922" lon="4.53184">
        <ele>1232</ele>
        <time>2023-05-18T14:07:11Z</time>
      </trkpt>
      <trkpt lat="45.36915" lon="4.5316">
        <ele>1230</ele>
        <time>2023-05-18T14:07:24Z</time>
      </trkpt>
      <trkpt lat="45.36911" lon="4.53127">
        <ele>1227.4</ele>
        <time>2023-05-18T14:07:43Z</time>
      </trkpt>
      <trkpt lat="45.36911" lon="4.5311">
        <ele>1225</ele>
        <time>2023-05-18T14:07:58Z</time>
      </trkpt>
      <trkpt lat="45.36906" lon="4.53084">
        <ele>1222.2</ele>
        <time>2023-05-18T14:08:15Z</time>
      </trkpt>
      <trkpt lat="45.36909" lon="4.53056">
        <ele>1219.8</ele>
        <time>2023-05-18T14:08:32Z</time>
      </trkpt>
      <trkpt lat="45.36909" lon="4.53041">
        <ele>1218</ele>
        <time>2023-05-18T14:08:44Z</time>
      </trkpt>
      <trkpt lat="45.36902" lon="4.5302">
        <ele>1215.4</ele>
        <time>2023-05-18T14:09:00Z</time>
      </trkpt>
      <trkpt lat="45.36883" lon="4.52981">
        <ele>1213</ele>
        <time>2023-05-18T14:09:20Z</time>
      </trkpt>
      <trkpt lat="45.3688" lon="4.52959">
        <ele>1210</ele>
        <time>2023-05-18T14:09:35Z</time>
      </trkpt>
      <trkpt lat="45.36878" lon="4.52953">
        <ele>1209.4</ele>
        <time>2023-05-18T14:09:39Z</time>
      </trkpt>
      <trkpt lat="45.36878" lon="4.52951">
        <ele>1209.2</ele>
        <time>2023-05-18T14:09:40Z</time>
      </trkpt>
      <trkpt lat="45.36873" lon="4.52924">
        <ele>1206.4</ele>
        <time>2023-05-18T14:09:57Z</time>
      </trkpt>
      <trkpt lat="45.36868" lon="4.52901">
        <ele>1204.2</ele>
        <time>2023-05-18T14:10:12Z</time>
      </trkpt>
      <trkpt lat="45.36867" lon="4.52899">
        <ele>1204</ele>
        <time>2023-05-18T14:10:13Z</time>
      </trkpt>
      <trkpt lat="45.36866" lon="4.52897">
        <ele>1204</ele>
        <time>2023-05-18T14:10:14Z</time>
      </trkpt>
      <trkpt lat="45.36865" lon="4.52896">
        <ele>1203.8</ele>
        <time>2023-05-18T14:10:15Z</time>
      </trkpt>
      <trkpt lat="45.36865" lon="4.52894">
        <ele>1203.6</ele>
        <time>2023-05-18T14:10:16Z</time>
      </trkpt>
      <trkpt lat="45.36863" lon="4.52871">
        <ele>1201.4</ele>
        <time>2023-05-18T14:10:31Z</time>
      </trkpt>
      <trkpt lat="45.36859" lon="4.52859">
        <ele>1201</ele>
        <time>2023-05-18T14:10:39Z</time>
      </trkpt>
      <trkpt lat="45.36854" lon="4.52847">
        <ele>1199.6</ele>
        <time>2023-05-18T14:10:51Z</time>
      </trkpt>
      <trkpt lat="45.36853" lon="4.52845">
        <ele>1199.4</ele>
        <time>2023-05-18T14:10:52Z</time>
      </trkpt>
      <trkpt lat="45.36852" lon="4.52844">
        <ele>1199.4</ele>
        <time>2023-05-18T14:10:53Z</time>
      </trkpt>
      <trkpt lat="45.36842" lon="4.52827">
        <ele>1199.2</ele>
        <time>2023-05-18T14:11:10Z</time>
      </trkpt>
      <trkpt lat="45.36834" lon="4.52801">
        <ele>1200.4</ele>
        <time>2023-05-18T14:11:31Z</time>
      </trkpt>
      <trkpt lat="45.36831" lon="4.52796">
        <ele>1200.4</ele>
        <time>2023-05-18T14:11:36Z</time>
      </trkpt>
      <trkpt lat="45.36826" lon="4.52791">
        <ele>1201</ele>
        <time>2023-05-18T14:12:09Z</time>
      </trkpt>
      <trkpt lat="45.36825" lon="4.52787">
        <ele>1201</ele>
        <time>2023-05-18T14:12:48Z</time>
      </trkpt>
    </trkseg>
  </trk>
</gpx>